<?xml version="1.0" encoding="UTF-8" standalone="no" ?>
<gpx xmlns="http://www.topografix.com/GPX/1/1" xmlns:xsi="http://www.w3.org/2001/XMLSchema-instance" xsi:schemaLocation="http://www.topografix.com/GPX/1/1 http://www.topografix.com/GPX/1/1/gpx.xsd" version="1.1" creator="VisuGPX - https://www.visugpx.com">
  <metadata>
    <name>CHENOVE Marche du vendredi 27 juillet 2012</name>
    <desc><![CDATA[Marche libre avec FRANCESCO]]></desc>
  </metadata>
  <trk>
    <name><![CDATA[CHENOVE Marche du vendredi 27 juillet 2012_1]]></name>
    <trkseg>
      <trkpt lat="47.2925" lon="5.00582">
        <ele>279.322</ele>
        <time>2012-07-27T07:34:50Z</time>
      </trkpt>
      <trkpt lat="47.29252" lon="5.00568">
        <ele>280.034</ele>
        <time>2012-07-27T07:35:01Z</time>
      </trkpt>
      <trkpt lat="47.29258" lon="5.00557">
        <ele>284.26</ele>
        <time>2012-07-27T07:35:12Z</time>
      </trkpt>
      <trkpt lat="47.29265" lon="5.00557">
        <ele>284.149</ele>
        <time>2012-07-27T07:35:23Z</time>
      </trkpt>
      <trkpt lat="47.29267" lon="5.00542">
        <ele>286.04</ele>
        <time>2012-07-27T07:35:34Z</time>
      </trkpt>
      <trkpt lat="47.29265" lon="5.00535">
        <ele>290.929</ele>
        <time>2012-07-27T07:35:45Z</time>
      </trkpt>
      <trkpt lat="47.2927" lon="5.00527">
        <ele>295.274</ele>
        <time>2012-07-27T07:35:56Z</time>
      </trkpt>
      <trkpt lat="47.29277" lon="5.00508">
        <ele>299.213</ele>
        <time>2012-07-27T07:36:07Z</time>
      </trkpt>
      <trkpt lat="47.29287" lon="5.00492">
        <ele>305.587</ele>
        <time>2012-07-27T07:36:18Z</time>
      </trkpt>
      <trkpt lat="47.2929" lon="5.00477">
        <ele>309.555</ele>
        <time>2012-07-27T07:36:29Z</time>
      </trkpt>
      <trkpt lat="47.29298" lon="5.00468">
        <ele>314.158</ele>
        <time>2012-07-27T07:36:40Z</time>
      </trkpt>
      <trkpt lat="47.2928" lon="5.00452">
        <ele>308.981</ele>
        <time>2012-07-27T07:36:51Z</time>
      </trkpt>
      <trkpt lat="47.29275" lon="5.00443">
        <ele>311.145</ele>
        <time>2012-07-27T07:37:02Z</time>
      </trkpt>
      <trkpt lat="47.29268" lon="5.00433">
        <ele>318.002</ele>
        <time>2012-07-27T07:37:13Z</time>
      </trkpt>
      <trkpt lat="47.29278" lon="5.00407">
        <ele>321.273</ele>
        <time>2012-07-27T07:37:24Z</time>
      </trkpt>
      <trkpt lat="47.29295" lon="5.00397">
        <ele>320.233</ele>
        <time>2012-07-27T07:37:35Z</time>
      </trkpt>
      <trkpt lat="47.29308" lon="5.00398">
        <ele>325.818</ele>
        <time>2012-07-27T07:37:46Z</time>
      </trkpt>
      <trkpt lat="47.2931" lon="5.004">
        <ele>326.632</ele>
        <time>2012-07-27T07:37:57Z</time>
      </trkpt>
      <trkpt lat="47.29315" lon="5.00395">
        <ele>329.403</ele>
        <time>2012-07-27T07:38:08Z</time>
      </trkpt>
      <trkpt lat="47.29327" lon="5.00387">
        <ele>333.507</ele>
        <time>2012-07-27T07:38:19Z</time>
      </trkpt>
      <trkpt lat="47.29343" lon="5.00383">
        <ele>333.403</ele>
        <time>2012-07-27T07:38:30Z</time>
      </trkpt>
      <trkpt lat="47.29357" lon="5.00378">
        <ele>333.155</ele>
        <time>2012-07-27T07:38:41Z</time>
      </trkpt>
      <trkpt lat="47.29373" lon="5.00362">
        <ele>327.859</ele>
        <time>2012-07-27T07:38:52Z</time>
      </trkpt>
      <trkpt lat="47.29388" lon="5.00355">
        <ele>322.26</ele>
        <time>2012-07-27T07:39:03Z</time>
      </trkpt>
      <trkpt lat="47.29402" lon="5.00355">
        <ele>321.419</ele>
        <time>2012-07-27T07:39:14Z</time>
      </trkpt>
      <trkpt lat="47.29403" lon="5.00367">
        <ele>320.837</ele>
        <time>2012-07-27T07:39:25Z</time>
      </trkpt>
      <trkpt lat="47.29417" lon="5.0036">
        <ele>318.152</ele>
        <time>2012-07-27T07:39:36Z</time>
      </trkpt>
      <trkpt lat="47.29428" lon="5.00348">
        <ele>315.526</ele>
        <time>2012-07-27T07:39:47Z</time>
      </trkpt>
      <trkpt lat="47.29445" lon="5.00355">
        <ele>318.046</ele>
        <time>2012-07-27T07:39:58Z</time>
      </trkpt>
      <trkpt lat="47.29457" lon="5.00358">
        <ele>322.681</ele>
        <time>2012-07-27T07:40:09Z</time>
      </trkpt>
      <trkpt lat="47.2947" lon="5.00353">
        <ele>320.848</ele>
        <time>2012-07-27T07:40:20Z</time>
      </trkpt>
      <trkpt lat="47.29477" lon="5.00327">
        <ele>322.193</ele>
        <time>2012-07-27T07:40:31Z</time>
      </trkpt>
      <trkpt lat="47.29487" lon="5.0031">
        <ele>320.491</ele>
        <time>2012-07-27T07:40:42Z</time>
      </trkpt>
      <trkpt lat="47.29495" lon="5.00298">
        <ele>316.502</ele>
        <time>2012-07-27T07:40:53Z</time>
      </trkpt>
      <trkpt lat="47.29493" lon="5.00295">
        <ele>320.391</ele>
        <time>2012-07-27T07:41:04Z</time>
      </trkpt>
      <trkpt lat="47.29495" lon="5.00283">
        <ele>319.264</ele>
        <time>2012-07-27T07:41:15Z</time>
      </trkpt>
      <trkpt lat="47.295" lon="5.00265">
        <ele>321.77</ele>
        <time>2012-07-27T07:41:26Z</time>
      </trkpt>
      <trkpt lat="47.29503" lon="5.00248">
        <ele>317.826</ele>
        <time>2012-07-27T07:41:37Z</time>
      </trkpt>
      <trkpt lat="47.29518" lon="5.00228">
        <ele>312.359</ele>
        <time>2012-07-27T07:41:48Z</time>
      </trkpt>
      <trkpt lat="47.29535" lon="5.00213">
        <ele>309.456</ele>
        <time>2012-07-27T07:41:59Z</time>
      </trkpt>
      <trkpt lat="47.29548" lon="5.00203">
        <ele>307</ele>
        <time>2012-07-27T07:42:10Z</time>
      </trkpt>
      <trkpt lat="47.29555" lon="5.00192">
        <ele>303.576</ele>
        <time>2012-07-27T07:42:21Z</time>
      </trkpt>
      <trkpt lat="47.29567" lon="5.00173">
        <ele>299.491</ele>
        <time>2012-07-27T07:42:32Z</time>
      </trkpt>
      <trkpt lat="47.29577" lon="5.00157">
        <ele>299.229</ele>
        <time>2012-07-27T07:42:43Z</time>
      </trkpt>
      <trkpt lat="47.29582" lon="5.00147">
        <ele>302.069</ele>
        <time>2012-07-27T07:42:54Z</time>
      </trkpt>
      <trkpt lat="47.29577" lon="5.00143">
        <ele>305.862</ele>
        <time>2012-07-27T07:43:05Z</time>
      </trkpt>
      <trkpt lat="47.2958" lon="5.0013">
        <ele>309.19</ele>
        <time>2012-07-27T07:43:16Z</time>
      </trkpt>
      <trkpt lat="47.29587" lon="5.00112">
        <ele>308.984</ele>
        <time>2012-07-27T07:43:27Z</time>
      </trkpt>
      <trkpt lat="47.29595" lon="5.0009">
        <ele>306.214</ele>
        <time>2012-07-27T07:43:38Z</time>
      </trkpt>
      <trkpt lat="47.29608" lon="5.00072">
        <ele>305.129</ele>
        <time>2012-07-27T07:43:49Z</time>
      </trkpt>
      <trkpt lat="47.2961" lon="5.00072">
        <ele>304.711</ele>
        <time>2012-07-27T07:44:00Z</time>
      </trkpt>
      <trkpt lat="47.2962" lon="5.00058">
        <ele>302.276</ele>
        <time>2012-07-27T07:44:11Z</time>
      </trkpt>
      <trkpt lat="47.29633" lon="5.00055">
        <ele>299.982</ele>
        <time>2012-07-27T07:44:22Z</time>
      </trkpt>
      <trkpt lat="47.29648" lon="5.00053">
        <ele>298.459</ele>
        <time>2012-07-27T07:44:33Z</time>
      </trkpt>
      <trkpt lat="47.29662" lon="5.00052">
        <ele>298.884</ele>
        <time>2012-07-27T07:44:44Z</time>
      </trkpt>
      <trkpt lat="47.29675" lon="5.00057">
        <ele>300.058</ele>
        <time>2012-07-27T07:44:55Z</time>
      </trkpt>
      <trkpt lat="47.2969" lon="5.00058">
        <ele>300.405</ele>
        <time>2012-07-27T07:45:06Z</time>
      </trkpt>
      <trkpt lat="47.29705" lon="5.00062">
        <ele>300.57</ele>
        <time>2012-07-27T07:45:17Z</time>
      </trkpt>
      <trkpt lat="47.2972" lon="5.00067">
        <ele>299.935</ele>
        <time>2012-07-27T07:45:28Z</time>
      </trkpt>
      <trkpt lat="47.29735" lon="5.00067">
        <ele>300.023</ele>
        <time>2012-07-27T07:45:39Z</time>
      </trkpt>
      <trkpt lat="47.29752" lon="5.0007">
        <ele>300.533</ele>
        <time>2012-07-27T07:45:50Z</time>
      </trkpt>
      <trkpt lat="47.29765" lon="5.00072">
        <ele>302.306</ele>
        <time>2012-07-27T07:46:01Z</time>
      </trkpt>
      <trkpt lat="47.29777" lon="5.00073">
        <ele>302.708</ele>
        <time>2012-07-27T07:46:12Z</time>
      </trkpt>
      <trkpt lat="47.29792" lon="5.00078">
        <ele>303.697</ele>
        <time>2012-07-27T07:46:23Z</time>
      </trkpt>
      <trkpt lat="47.29807" lon="5.00085">
        <ele>304.959</ele>
        <time>2012-07-27T07:46:34Z</time>
      </trkpt>
      <trkpt lat="47.2982" lon="5.0009">
        <ele>304.403</ele>
        <time>2012-07-27T07:46:45Z</time>
      </trkpt>
      <trkpt lat="47.29833" lon="5.00097">
        <ele>304.459</ele>
        <time>2012-07-27T07:46:56Z</time>
      </trkpt>
      <trkpt lat="47.29847" lon="5.00102">
        <ele>306.258</ele>
        <time>2012-07-27T07:47:07Z</time>
      </trkpt>
      <trkpt lat="47.29862" lon="5.00108">
        <ele>303.754</ele>
        <time>2012-07-27T07:47:18Z</time>
      </trkpt>
      <trkpt lat="47.29875" lon="5.00112">
        <ele>302.893</ele>
        <time>2012-07-27T07:47:29Z</time>
      </trkpt>
      <trkpt lat="47.29885" lon="5.00117">
        <ele>302.606</ele>
        <time>2012-07-27T07:47:40Z</time>
      </trkpt>
      <trkpt lat="47.29897" lon="5.00113">
        <ele>302.384</ele>
        <time>2012-07-27T07:47:51Z</time>
      </trkpt>
      <trkpt lat="47.29908" lon="5.00115">
        <ele>304.885</ele>
        <time>2012-07-27T07:48:02Z</time>
      </trkpt>
      <trkpt lat="47.2992" lon="5.0011">
        <ele>307.36</ele>
        <time>2012-07-27T07:48:13Z</time>
      </trkpt>
      <trkpt lat="47.29933" lon="5.00112">
        <ele>307.972</ele>
        <time>2012-07-27T07:48:24Z</time>
      </trkpt>
      <trkpt lat="47.29948" lon="5.00112">
        <ele>307.228</ele>
        <time>2012-07-27T07:48:35Z</time>
      </trkpt>
      <trkpt lat="47.29963" lon="5.00107">
        <ele>305.677</ele>
        <time>2012-07-27T07:48:46Z</time>
      </trkpt>
      <trkpt lat="47.29977" lon="5.00107">
        <ele>304.182</ele>
        <time>2012-07-27T07:48:57Z</time>
      </trkpt>
      <trkpt lat="47.29992" lon="5.0011">
        <ele>303.528</ele>
        <time>2012-07-27T07:49:08Z</time>
      </trkpt>
      <trkpt lat="47.30003" lon="5.0011">
        <ele>304.455</ele>
        <time>2012-07-27T07:49:19Z</time>
      </trkpt>
      <trkpt lat="47.3001" lon="5.0011">
        <ele>306.054</ele>
        <time>2012-07-27T07:49:30Z</time>
      </trkpt>
      <trkpt lat="47.30018" lon="5.0011">
        <ele>307.246</ele>
        <time>2012-07-27T07:49:41Z</time>
      </trkpt>
      <trkpt lat="47.30025" lon="5.00108">
        <ele>307.044</ele>
        <time>2012-07-27T07:49:52Z</time>
      </trkpt>
      <trkpt lat="47.30033" lon="5.00118">
        <ele>309.073</ele>
        <time>2012-07-27T07:50:03Z</time>
      </trkpt>
      <trkpt lat="47.30042" lon="5.00118">
        <ele>308.936</ele>
        <time>2012-07-27T07:50:14Z</time>
      </trkpt>
      <trkpt lat="47.30048" lon="5.00127">
        <ele>310.3</ele>
        <time>2012-07-27T07:50:25Z</time>
      </trkpt>
      <trkpt lat="47.30058" lon="5.00138">
        <ele>311.237</ele>
        <time>2012-07-27T07:50:36Z</time>
      </trkpt>
      <trkpt lat="47.30065" lon="5.0014">
        <ele>312.287</ele>
        <time>2012-07-27T07:50:47Z</time>
      </trkpt>
      <trkpt lat="47.30072" lon="5.00147">
        <ele>312.212</ele>
        <time>2012-07-27T07:50:58Z</time>
      </trkpt>
      <trkpt lat="47.30083" lon="5.00158">
        <ele>314.888</ele>
        <time>2012-07-27T07:51:09Z</time>
      </trkpt>
      <trkpt lat="47.30095" lon="5.00168">
        <ele>316.581</ele>
        <time>2012-07-27T07:51:20Z</time>
      </trkpt>
      <trkpt lat="47.30107" lon="5.0018">
        <ele>318.5</ele>
        <time>2012-07-27T07:51:31Z</time>
      </trkpt>
      <trkpt lat="47.30117" lon="5.00187">
        <ele>318.773</ele>
        <time>2012-07-27T07:51:42Z</time>
      </trkpt>
      <trkpt lat="47.30127" lon="5.002">
        <ele>321.98</ele>
        <time>2012-07-27T07:51:53Z</time>
      </trkpt>
      <trkpt lat="47.30142" lon="5.002">
        <ele>325.81</ele>
        <time>2012-07-27T07:52:04Z</time>
      </trkpt>
      <trkpt lat="47.30153" lon="5.0021">
        <ele>327.838</ele>
        <time>2012-07-27T07:52:15Z</time>
      </trkpt>
      <trkpt lat="47.30158" lon="5.00213">
        <ele>327.55</ele>
        <time>2012-07-27T07:52:26Z</time>
      </trkpt>
      <trkpt lat="47.3017" lon="5.00215">
        <ele>326.071</ele>
        <time>2012-07-27T07:52:37Z</time>
      </trkpt>
      <trkpt lat="47.3018" lon="5.00225">
        <ele>324.635</ele>
        <time>2012-07-27T07:52:48Z</time>
      </trkpt>
      <trkpt lat="47.30193" lon="5.0023">
        <ele>323.547</ele>
        <time>2012-07-27T07:52:59Z</time>
      </trkpt>
      <trkpt lat="47.30203" lon="5.00235">
        <ele>321.97</ele>
        <time>2012-07-27T07:53:10Z</time>
      </trkpt>
      <trkpt lat="47.30215" lon="5.00235">
        <ele>321.606</ele>
        <time>2012-07-27T07:53:21Z</time>
      </trkpt>
      <trkpt lat="47.30227" lon="5.00233">
        <ele>322.474</ele>
        <time>2012-07-27T07:53:32Z</time>
      </trkpt>
      <trkpt lat="47.30243" lon="5.00238">
        <ele>325.038</ele>
        <time>2012-07-27T07:53:43Z</time>
      </trkpt>
      <trkpt lat="47.30258" lon="5.00243">
        <ele>326.255</ele>
        <time>2012-07-27T07:53:54Z</time>
      </trkpt>
      <trkpt lat="47.30273" lon="5.00247">
        <ele>325.187</ele>
        <time>2012-07-27T07:54:05Z</time>
      </trkpt>
      <trkpt lat="47.30283" lon="5.0025">
        <ele>323.651</ele>
        <time>2012-07-27T07:54:16Z</time>
      </trkpt>
      <trkpt lat="47.30297" lon="5.00255">
        <ele>323.406</ele>
        <time>2012-07-27T07:54:27Z</time>
      </trkpt>
      <trkpt lat="47.30308" lon="5.00255">
        <ele>323.334</ele>
        <time>2012-07-27T07:54:38Z</time>
      </trkpt>
      <trkpt lat="47.3032" lon="5.00262">
        <ele>323.773</ele>
        <time>2012-07-27T07:54:49Z</time>
      </trkpt>
      <trkpt lat="47.30332" lon="5.00268">
        <ele>323.904</ele>
        <time>2012-07-27T07:55:00Z</time>
      </trkpt>
      <trkpt lat="47.3035" lon="5.00245">
        <ele>327.517</ele>
        <time>2012-07-27T07:55:11Z</time>
      </trkpt>
      <trkpt lat="47.30365" lon="5.00247">
        <ele>329.489</ele>
        <time>2012-07-27T07:55:22Z</time>
      </trkpt>
      <trkpt lat="47.3038" lon="5.00245">
        <ele>326.774</ele>
        <time>2012-07-27T07:55:33Z</time>
      </trkpt>
      <trkpt lat="47.30392" lon="5.0024">
        <ele>326.889</ele>
        <time>2012-07-27T07:55:44Z</time>
      </trkpt>
      <trkpt lat="47.30405" lon="5.00237">
        <ele>329.341</ele>
        <time>2012-07-27T07:55:55Z</time>
      </trkpt>
      <trkpt lat="47.3042" lon="5.00233">
        <ele>331.283</ele>
        <time>2012-07-27T07:56:06Z</time>
      </trkpt>
      <trkpt lat="47.30432" lon="5.00228">
        <ele>334.03</ele>
        <time>2012-07-27T07:56:17Z</time>
      </trkpt>
      <trkpt lat="47.30448" lon="5.00218">
        <ele>333.787</ele>
        <time>2012-07-27T07:56:28Z</time>
      </trkpt>
      <trkpt lat="47.3046" lon="5.00217">
        <ele>334.539</ele>
        <time>2012-07-27T07:56:39Z</time>
      </trkpt>
      <trkpt lat="47.30473" lon="5.00218">
        <ele>335.636</ele>
        <time>2012-07-27T07:56:50Z</time>
      </trkpt>
      <trkpt lat="47.3049" lon="5.00217">
        <ele>336.927</ele>
        <time>2012-07-27T07:57:01Z</time>
      </trkpt>
      <trkpt lat="47.30503" lon="5.00217">
        <ele>339.168</ele>
        <time>2012-07-27T07:57:12Z</time>
      </trkpt>
      <trkpt lat="47.30518" lon="5.00212">
        <ele>337.996</ele>
        <time>2012-07-27T07:57:23Z</time>
      </trkpt>
      <trkpt lat="47.30535" lon="5.00208">
        <ele>336.676</ele>
        <time>2012-07-27T07:57:34Z</time>
      </trkpt>
      <trkpt lat="47.30548" lon="5.00202">
        <ele>338.383</ele>
        <time>2012-07-27T07:57:45Z</time>
      </trkpt>
      <trkpt lat="47.30563" lon="5.002">
        <ele>336.872</ele>
        <time>2012-07-27T07:57:56Z</time>
      </trkpt>
      <trkpt lat="47.30578" lon="5.00197">
        <ele>336.294</ele>
        <time>2012-07-27T07:58:07Z</time>
      </trkpt>
      <trkpt lat="47.30592" lon="5.00193">
        <ele>336.81</ele>
        <time>2012-07-27T07:58:18Z</time>
      </trkpt>
      <trkpt lat="47.30608" lon="5.0019">
        <ele>336.379</ele>
        <time>2012-07-27T07:58:29Z</time>
      </trkpt>
      <trkpt lat="47.30623" lon="5.00188">
        <ele>337.081</ele>
        <time>2012-07-27T07:58:40Z</time>
      </trkpt>
      <trkpt lat="47.30635" lon="5.00182">
        <ele>337.504</ele>
        <time>2012-07-27T07:58:51Z</time>
      </trkpt>
      <trkpt lat="47.30647" lon="5.00182">
        <ele>338.551</ele>
        <time>2012-07-27T07:59:02Z</time>
      </trkpt>
      <trkpt lat="47.30658" lon="5.00185">
        <ele>339.697</ele>
        <time>2012-07-27T07:59:13Z</time>
      </trkpt>
      <trkpt lat="47.30672" lon="5.0019">
        <ele>333.141</ele>
        <time>2012-07-27T07:59:24Z</time>
      </trkpt>
      <trkpt lat="47.30687" lon="5.00195">
        <ele>331.815</ele>
        <time>2012-07-27T07:59:35Z</time>
      </trkpt>
      <trkpt lat="47.30702" lon="5.002">
        <ele>333.566</ele>
        <time>2012-07-27T07:59:46Z</time>
      </trkpt>
      <trkpt lat="47.30713" lon="5.00202">
        <ele>334.487</ele>
        <time>2012-07-27T07:59:57Z</time>
      </trkpt>
      <trkpt lat="47.30727" lon="5.00212">
        <ele>332.926</ele>
        <time>2012-07-27T08:00:08Z</time>
      </trkpt>
      <trkpt lat="47.30738" lon="5.00215">
        <ele>330.573</ele>
        <time>2012-07-27T08:00:19Z</time>
      </trkpt>
      <trkpt lat="47.3075" lon="5.0021">
        <ele>331.116</ele>
        <time>2012-07-27T08:00:30Z</time>
      </trkpt>
      <trkpt lat="47.30765" lon="5.0021">
        <ele>331.123</ele>
        <time>2012-07-27T08:00:41Z</time>
      </trkpt>
      <trkpt lat="47.30778" lon="5.00203">
        <ele>331.236</ele>
        <time>2012-07-27T08:00:52Z</time>
      </trkpt>
      <trkpt lat="47.3079" lon="5.00202">
        <ele>328.479</ele>
        <time>2012-07-27T08:01:03Z</time>
      </trkpt>
      <trkpt lat="47.30807" lon="5.00197">
        <ele>325.789</ele>
        <time>2012-07-27T08:01:14Z</time>
      </trkpt>
      <trkpt lat="47.30822" lon="5.00192">
        <ele>321.82</ele>
        <time>2012-07-27T08:01:25Z</time>
      </trkpt>
      <trkpt lat="47.30832" lon="5.00193">
        <ele>319.951</ele>
        <time>2012-07-27T08:01:36Z</time>
      </trkpt>
      <trkpt lat="47.30848" lon="5.00185">
        <ele>317.817</ele>
        <time>2012-07-27T08:01:47Z</time>
      </trkpt>
      <trkpt lat="47.30863" lon="5.00177">
        <ele>317.407</ele>
        <time>2012-07-27T08:01:58Z</time>
      </trkpt>
      <trkpt lat="47.30875" lon="5.00173">
        <ele>314.571</ele>
        <time>2012-07-27T08:02:09Z</time>
      </trkpt>
      <trkpt lat="47.30888" lon="5.00172">
        <ele>314.335</ele>
        <time>2012-07-27T08:02:20Z</time>
      </trkpt>
      <trkpt lat="47.30903" lon="5.00163">
        <ele>315.538</ele>
        <time>2012-07-27T08:02:31Z</time>
      </trkpt>
      <trkpt lat="47.30912" lon="5.00165">
        <ele>314.692</ele>
        <time>2012-07-27T08:02:42Z</time>
      </trkpt>
      <trkpt lat="47.3092" lon="5.0016">
        <ele>310.469</ele>
        <time>2012-07-27T08:02:53Z</time>
      </trkpt>
      <trkpt lat="47.3093" lon="5.00158">
        <ele>309.331</ele>
        <time>2012-07-27T08:03:04Z</time>
      </trkpt>
      <trkpt lat="47.30933" lon="5.00153">
        <ele>308.176</ele>
        <time>2012-07-27T08:03:15Z</time>
      </trkpt>
      <trkpt lat="47.30938" lon="5.0014">
        <ele>306.252</ele>
        <time>2012-07-27T08:03:26Z</time>
      </trkpt>
      <trkpt lat="47.30957" lon="5.00132">
        <ele>305.159</ele>
        <time>2012-07-27T08:03:37Z</time>
      </trkpt>
      <trkpt lat="47.30967" lon="5.0013">
        <ele>306.711</ele>
        <time>2012-07-27T08:03:48Z</time>
      </trkpt>
      <trkpt lat="47.30973" lon="5.00145">
        <ele>303.098</ele>
        <time>2012-07-27T08:03:59Z</time>
      </trkpt>
      <trkpt lat="47.30978" lon="5.00153">
        <ele>301.869</ele>
        <time>2012-07-27T08:04:10Z</time>
      </trkpt>
      <trkpt lat="47.30987" lon="5.00165">
        <ele>302.361</ele>
        <time>2012-07-27T08:04:21Z</time>
      </trkpt>
      <trkpt lat="47.30995" lon="5.0018">
        <ele>303.477</ele>
        <time>2012-07-27T08:04:32Z</time>
      </trkpt>
      <trkpt lat="47.31002" lon="5.00198">
        <ele>304.335</ele>
        <time>2012-07-27T08:04:43Z</time>
      </trkpt>
      <trkpt lat="47.31008" lon="5.00215">
        <ele>307.215</ele>
        <time>2012-07-27T08:04:54Z</time>
      </trkpt>
      <trkpt lat="47.31017" lon="5.00235">
        <ele>306.4</ele>
        <time>2012-07-27T08:05:05Z</time>
      </trkpt>
      <trkpt lat="47.31028" lon="5.00255">
        <ele>302.832</ele>
        <time>2012-07-27T08:05:16Z</time>
      </trkpt>
      <trkpt lat="47.31042" lon="5.00272">
        <ele>298.398</ele>
        <time>2012-07-27T08:05:27Z</time>
      </trkpt>
      <trkpt lat="47.31053" lon="5.00282">
        <ele>299.724</ele>
        <time>2012-07-27T08:05:38Z</time>
      </trkpt>
      <trkpt lat="47.31065" lon="5.00293">
        <ele>298.373</ele>
        <time>2012-07-27T08:05:49Z</time>
      </trkpt>
      <trkpt lat="47.31078" lon="5.00307">
        <ele>296.82</ele>
        <time>2012-07-27T08:06:00Z</time>
      </trkpt>
      <trkpt lat="47.31083" lon="5.00315">
        <ele>298.75</ele>
        <time>2012-07-27T08:06:11Z</time>
      </trkpt>
      <trkpt lat="47.31093" lon="5.00328">
        <ele>300.762</ele>
        <time>2012-07-27T08:06:22Z</time>
      </trkpt>
      <trkpt lat="47.31102" lon="5.00343">
        <ele>300.547</ele>
        <time>2012-07-27T08:06:33Z</time>
      </trkpt>
      <trkpt lat="47.31112" lon="5.00358">
        <ele>299.257</ele>
        <time>2012-07-27T08:06:44Z</time>
      </trkpt>
      <trkpt lat="47.31123" lon="5.00375">
        <ele>297.64</ele>
        <time>2012-07-27T08:06:55Z</time>
      </trkpt>
      <trkpt lat="47.31135" lon="5.00392">
        <ele>295.315</ele>
        <time>2012-07-27T08:07:06Z</time>
      </trkpt>
      <trkpt lat="47.31145" lon="5.00403">
        <ele>295.625</ele>
        <time>2012-07-27T08:07:17Z</time>
      </trkpt>
      <trkpt lat="47.31155" lon="5.00418">
        <ele>296.542</ele>
        <time>2012-07-27T08:07:28Z</time>
      </trkpt>
      <trkpt lat="47.31163" lon="5.00427">
        <ele>296.49</ele>
        <time>2012-07-27T08:07:39Z</time>
      </trkpt>
      <trkpt lat="47.31177" lon="5.00432">
        <ele>291.99</ele>
        <time>2012-07-27T08:07:50Z</time>
      </trkpt>
      <trkpt lat="47.31182" lon="5.00432">
        <ele>291.309</ele>
        <time>2012-07-27T08:08:01Z</time>
      </trkpt>
      <trkpt lat="47.31195" lon="5.00438">
        <ele>291.883</ele>
        <time>2012-07-27T08:08:12Z</time>
      </trkpt>
      <trkpt lat="47.31207" lon="5.00437">
        <ele>293.142</ele>
        <time>2012-07-27T08:08:23Z</time>
      </trkpt>
      <trkpt lat="47.31217" lon="5.00437">
        <ele>296.824</ele>
        <time>2012-07-27T08:08:34Z</time>
      </trkpt>
      <trkpt lat="47.31225" lon="5.00428">
        <ele>299.276</ele>
        <time>2012-07-27T08:08:45Z</time>
      </trkpt>
      <trkpt lat="47.31237" lon="5.00422">
        <ele>298.125</ele>
        <time>2012-07-27T08:08:56Z</time>
      </trkpt>
      <trkpt lat="47.31245" lon="5.00405">
        <ele>296.534</ele>
        <time>2012-07-27T08:09:07Z</time>
      </trkpt>
      <trkpt lat="47.31247" lon="5.00397">
        <ele>296.502</ele>
        <time>2012-07-27T08:09:18Z</time>
      </trkpt>
      <trkpt lat="47.31248" lon="5.0039">
        <ele>295.609</ele>
        <time>2012-07-27T08:09:29Z</time>
      </trkpt>
      <trkpt lat="47.31248" lon="5.00377">
        <ele>296.019</ele>
        <time>2012-07-27T08:09:40Z</time>
      </trkpt>
      <trkpt lat="47.31248" lon="5.00352">
        <ele>296.999</ele>
        <time>2012-07-27T08:09:51Z</time>
      </trkpt>
      <trkpt lat="47.31252" lon="5.00327">
        <ele>296.021</ele>
        <time>2012-07-27T08:10:02Z</time>
      </trkpt>
      <trkpt lat="47.31253" lon="5.0031">
        <ele>294.161</ele>
        <time>2012-07-27T08:10:13Z</time>
      </trkpt>
      <trkpt lat="47.31252" lon="5.00287">
        <ele>296.399</ele>
        <time>2012-07-27T08:10:24Z</time>
      </trkpt>
      <trkpt lat="47.31243" lon="5.00267">
        <ele>301.613</ele>
        <time>2012-07-27T08:10:35Z</time>
      </trkpt>
      <trkpt lat="47.31245" lon="5.00248">
        <ele>304.23</ele>
        <time>2012-07-27T08:10:46Z</time>
      </trkpt>
      <trkpt lat="47.31248" lon="5.00233">
        <ele>308.487</ele>
        <time>2012-07-27T08:10:57Z</time>
      </trkpt>
      <trkpt lat="47.31248" lon="5.00217">
        <ele>311.827</ele>
        <time>2012-07-27T08:11:08Z</time>
      </trkpt>
      <trkpt lat="47.31252" lon="5.00202">
        <ele>313.282</ele>
        <time>2012-07-27T08:11:19Z</time>
      </trkpt>
      <trkpt lat="47.3126" lon="5.0018">
        <ele>312.589</ele>
        <time>2012-07-27T08:11:30Z</time>
      </trkpt>
      <trkpt lat="47.31267" lon="5.0016">
        <ele>310.315</ele>
        <time>2012-07-27T08:11:41Z</time>
      </trkpt>
      <trkpt lat="47.31272" lon="5.00137">
        <ele>308.947</ele>
        <time>2012-07-27T08:11:52Z</time>
      </trkpt>
      <trkpt lat="47.31278" lon="5.00118">
        <ele>308.378</ele>
        <time>2012-07-27T08:12:03Z</time>
      </trkpt>
      <trkpt lat="47.31283" lon="5.001">
        <ele>307.609</ele>
        <time>2012-07-27T08:12:14Z</time>
      </trkpt>
      <trkpt lat="47.31288" lon="5.0008">
        <ele>307.33</ele>
        <time>2012-07-27T08:12:25Z</time>
      </trkpt>
      <trkpt lat="47.3129" lon="5.00065">
        <ele>308.256</ele>
        <time>2012-07-27T08:12:36Z</time>
      </trkpt>
      <trkpt lat="47.31288" lon="5.0005">
        <ele>310.343</ele>
        <time>2012-07-27T08:12:47Z</time>
      </trkpt>
      <trkpt lat="47.31285" lon="5.00033">
        <ele>310.769</ele>
        <time>2012-07-27T08:12:58Z</time>
      </trkpt>
      <trkpt lat="47.31285" lon="5.00017">
        <ele>310.069</ele>
        <time>2012-07-27T08:13:09Z</time>
      </trkpt>
      <trkpt lat="47.31285" lon="5.00002">
        <ele>311.074</ele>
        <time>2012-07-27T08:13:20Z</time>
      </trkpt>
      <trkpt lat="47.31288" lon="4.9999">
        <ele>311.937</ele>
        <time>2012-07-27T08:13:31Z</time>
      </trkpt>
      <trkpt lat="47.31292" lon="4.99967">
        <ele>313.892</ele>
        <time>2012-07-27T08:13:42Z</time>
      </trkpt>
      <trkpt lat="47.31297" lon="4.99952">
        <ele>315.725</ele>
        <time>2012-07-27T08:13:53Z</time>
      </trkpt>
      <trkpt lat="47.313" lon="4.99938">
        <ele>317.191</ele>
        <time>2012-07-27T08:14:04Z</time>
      </trkpt>
      <trkpt lat="47.31303" lon="4.99917">
        <ele>317.426</ele>
        <time>2012-07-27T08:14:15Z</time>
      </trkpt>
      <trkpt lat="47.31302" lon="4.99892">
        <ele>320.492</ele>
        <time>2012-07-27T08:14:26Z</time>
      </trkpt>
      <trkpt lat="47.31303" lon="4.99875">
        <ele>322.043</ele>
        <time>2012-07-27T08:14:37Z</time>
      </trkpt>
      <trkpt lat="47.31303" lon="4.99857">
        <ele>323.243</ele>
        <time>2012-07-27T08:14:48Z</time>
      </trkpt>
      <trkpt lat="47.313" lon="4.99842">
        <ele>326.857</ele>
        <time>2012-07-27T08:14:59Z</time>
      </trkpt>
      <trkpt lat="47.31302" lon="4.99827">
        <ele>327.853</ele>
        <time>2012-07-27T08:15:10Z</time>
      </trkpt>
      <trkpt lat="47.3131" lon="4.998">
        <ele>326.986</ele>
        <time>2012-07-27T08:15:21Z</time>
      </trkpt>
      <trkpt lat="47.31318" lon="4.99765">
        <ele>322.758</ele>
        <time>2012-07-27T08:15:32Z</time>
      </trkpt>
      <trkpt lat="47.31323" lon="4.99742">
        <ele>320.042</ele>
        <time>2012-07-27T08:15:43Z</time>
      </trkpt>
      <trkpt lat="47.31325" lon="4.99717">
        <ele>319.588</ele>
        <time>2012-07-27T08:15:54Z</time>
      </trkpt>
      <trkpt lat="47.31327" lon="4.99693">
        <ele>318.631</ele>
        <time>2012-07-27T08:16:05Z</time>
      </trkpt>
      <trkpt lat="47.31332" lon="4.99672">
        <ele>318.455</ele>
        <time>2012-07-27T08:16:16Z</time>
      </trkpt>
      <trkpt lat="47.31335" lon="4.99653">
        <ele>320.452</ele>
        <time>2012-07-27T08:16:27Z</time>
      </trkpt>
      <trkpt lat="47.3134" lon="4.99635">
        <ele>323.011</ele>
        <time>2012-07-27T08:16:38Z</time>
      </trkpt>
      <trkpt lat="47.31345" lon="4.99618">
        <ele>323.305</ele>
        <time>2012-07-27T08:16:49Z</time>
      </trkpt>
      <trkpt lat="47.31352" lon="4.99597">
        <ele>324.729</ele>
        <time>2012-07-27T08:17:00Z</time>
      </trkpt>
      <trkpt lat="47.31352" lon="4.99585">
        <ele>325.264</ele>
        <time>2012-07-27T08:17:11Z</time>
      </trkpt>
      <trkpt lat="47.31352" lon="4.99575">
        <ele>326.429</ele>
        <time>2012-07-27T08:17:22Z</time>
      </trkpt>
      <trkpt lat="47.31355" lon="4.9955">
        <ele>325.687</ele>
        <time>2012-07-27T08:17:33Z</time>
      </trkpt>
      <trkpt lat="47.31357" lon="4.9953">
        <ele>325.059</ele>
        <time>2012-07-27T08:17:44Z</time>
      </trkpt>
      <trkpt lat="47.31357" lon="4.99508">
        <ele>324.768</ele>
        <time>2012-07-27T08:17:55Z</time>
      </trkpt>
      <trkpt lat="47.31362" lon="4.99483">
        <ele>327.707</ele>
        <time>2012-07-27T08:18:06Z</time>
      </trkpt>
      <trkpt lat="47.31358" lon="4.99462">
        <ele>328.952</ele>
        <time>2012-07-27T08:18:17Z</time>
      </trkpt>
      <trkpt lat="47.31358" lon="4.99438">
        <ele>333.48</ele>
        <time>2012-07-27T08:18:28Z</time>
      </trkpt>
      <trkpt lat="47.31362" lon="4.99427">
        <ele>332.849</ele>
        <time>2012-07-27T08:18:39Z</time>
      </trkpt>
      <trkpt lat="47.31367" lon="4.99408">
        <ele>333.407</ele>
        <time>2012-07-27T08:18:50Z</time>
      </trkpt>
      <trkpt lat="47.31368" lon="4.99385">
        <ele>332.653</ele>
        <time>2012-07-27T08:19:01Z</time>
      </trkpt>
      <trkpt lat="47.31375" lon="4.99368">
        <ele>331.644</ele>
        <time>2012-07-27T08:19:12Z</time>
      </trkpt>
      <trkpt lat="47.31383" lon="4.9937">
        <ele>331.817</ele>
        <time>2012-07-27T08:19:23Z</time>
      </trkpt>
      <trkpt lat="47.31388" lon="4.9937">
        <ele>333.627</ele>
        <time>2012-07-27T08:19:34Z</time>
      </trkpt>
      <trkpt lat="47.31393" lon="4.99367">
        <ele>334.802</ele>
        <time>2012-07-27T08:19:45Z</time>
      </trkpt>
      <trkpt lat="47.31397" lon="4.99363">
        <ele>335.564</ele>
        <time>2012-07-27T08:19:56Z</time>
      </trkpt>
      <trkpt lat="47.314" lon="4.99362">
        <ele>336.688</ele>
        <time>2012-07-27T08:20:07Z</time>
      </trkpt>
      <trkpt lat="47.31402" lon="4.99362">
        <ele>337.872</ele>
        <time>2012-07-27T08:20:18Z</time>
      </trkpt>
      <trkpt lat="47.31407" lon="4.99343">
        <ele>338.196</ele>
        <time>2012-07-27T08:20:29Z</time>
      </trkpt>
      <trkpt lat="47.31407" lon="4.99332">
        <ele>338.158</ele>
        <time>2012-07-27T08:20:40Z</time>
      </trkpt>
      <trkpt lat="47.31407" lon="4.99332">
        <ele>338.296</ele>
        <time>2012-07-27T08:20:51Z</time>
      </trkpt>
      <trkpt lat="47.31407" lon="4.9933">
        <ele>338.231</ele>
        <time>2012-07-27T08:21:02Z</time>
      </trkpt>
      <trkpt lat="47.31408" lon="4.99328">
        <ele>338.532</ele>
        <time>2012-07-27T08:21:13Z</time>
      </trkpt>
      <trkpt lat="47.31408" lon="4.99328">
        <ele>338.645</ele>
        <time>2012-07-27T08:21:24Z</time>
      </trkpt>
      <trkpt lat="47.31408" lon="4.9933">
        <ele>339.431</ele>
        <time>2012-07-27T08:21:35Z</time>
      </trkpt>
      <trkpt lat="47.31408" lon="4.9933">
        <ele>339.431</ele>
        <time>2012-07-27T08:21:46Z</time>
      </trkpt>
      <trkpt lat="47.31408" lon="4.9933">
        <ele>339.431</ele>
        <time>2012-07-27T08:21:57Z</time>
      </trkpt>
      <trkpt lat="47.31408" lon="4.9933">
        <ele>339.431</ele>
        <time>2012-07-27T08:22:08Z</time>
      </trkpt>
      <trkpt lat="47.31408" lon="4.9933">
        <ele>339.431</ele>
        <time>2012-07-27T08:22:19Z</time>
      </trkpt>
      <trkpt lat="47.31408" lon="4.9933">
        <ele>339.431</ele>
        <time>2012-07-27T08:22:30Z</time>
      </trkpt>
      <trkpt lat="47.31408" lon="4.9933">
        <ele>339.431</ele>
        <time>2012-07-27T08:22:41Z</time>
      </trkpt>
      <trkpt lat="47.31408" lon="4.9933">
        <ele>339.431</ele>
        <time>2012-07-27T08:22:52Z</time>
      </trkpt>
      <trkpt lat="47.31408" lon="4.9933">
        <ele>339.431</ele>
        <time>2012-07-27T08:23:03Z</time>
      </trkpt>
      <trkpt lat="47.31408" lon="4.9933">
        <ele>339.431</ele>
        <time>2012-07-27T08:23:14Z</time>
      </trkpt>
      <trkpt lat="47.31408" lon="4.9933">
        <ele>339.431</ele>
        <time>2012-07-27T08:23:25Z</time>
      </trkpt>
      <trkpt lat="47.31408" lon="4.9933">
        <ele>339.431</ele>
        <time>2012-07-27T08:23:36Z</time>
      </trkpt>
      <trkpt lat="47.31408" lon="4.9933">
        <ele>339.431</ele>
        <time>2012-07-27T08:23:47Z</time>
      </trkpt>
      <trkpt lat="47.31408" lon="4.99328">
        <ele>339.223</ele>
        <time>2012-07-27T08:23:58Z</time>
      </trkpt>
      <trkpt lat="47.31408" lon="4.99328">
        <ele>339.223</ele>
        <time>2012-07-27T08:24:09Z</time>
      </trkpt>
      <trkpt lat="47.31408" lon="4.99328">
        <ele>339.223</ele>
        <time>2012-07-27T08:24:20Z</time>
      </trkpt>
      <trkpt lat="47.31408" lon="4.99328">
        <ele>339.223</ele>
        <time>2012-07-27T08:24:31Z</time>
      </trkpt>
      <trkpt lat="47.31408" lon="4.99328">
        <ele>339.223</ele>
        <time>2012-07-27T08:24:42Z</time>
      </trkpt>
      <trkpt lat="47.3141" lon="4.99318">
        <ele>340.865</ele>
        <time>2012-07-27T08:24:53Z</time>
      </trkpt>
      <trkpt lat="47.31415" lon="4.99307">
        <ele>341.377</ele>
        <time>2012-07-27T08:25:04Z</time>
      </trkpt>
      <trkpt lat="47.31423" lon="4.99297">
        <ele>342.564</ele>
        <time>2012-07-27T08:25:15Z</time>
      </trkpt>
      <trkpt lat="47.31435" lon="4.993">
        <ele>343.994</ele>
        <time>2012-07-27T08:25:26Z</time>
      </trkpt>
      <trkpt lat="47.31448" lon="4.99307">
        <ele>345.343</ele>
        <time>2012-07-27T08:25:37Z</time>
      </trkpt>
      <trkpt lat="47.31463" lon="4.99315">
        <ele>346.189</ele>
        <time>2012-07-27T08:25:48Z</time>
      </trkpt>
      <trkpt lat="47.31475" lon="4.99325">
        <ele>345.93</ele>
        <time>2012-07-27T08:25:59Z</time>
      </trkpt>
      <trkpt lat="47.3149" lon="4.9933">
        <ele>347.779</ele>
        <time>2012-07-27T08:26:10Z</time>
      </trkpt>
      <trkpt lat="47.315" lon="4.99333">
        <ele>351.134</ele>
        <time>2012-07-27T08:26:21Z</time>
      </trkpt>
      <trkpt lat="47.31513" lon="4.99342">
        <ele>353.303</ele>
        <time>2012-07-27T08:26:32Z</time>
      </trkpt>
      <trkpt lat="47.31525" lon="4.99348">
        <ele>355.451</ele>
        <time>2012-07-27T08:26:43Z</time>
      </trkpt>
      <trkpt lat="47.31538" lon="4.99357">
        <ele>355.624</ele>
        <time>2012-07-27T08:26:54Z</time>
      </trkpt>
      <trkpt lat="47.3155" lon="4.9937">
        <ele>356.637</ele>
        <time>2012-07-27T08:27:05Z</time>
      </trkpt>
      <trkpt lat="47.3156" lon="4.99377">
        <ele>358.814</ele>
        <time>2012-07-27T08:27:16Z</time>
      </trkpt>
      <trkpt lat="47.31577" lon="4.99383">
        <ele>360.389</ele>
        <time>2012-07-27T08:27:27Z</time>
      </trkpt>
      <trkpt lat="47.31588" lon="4.9939">
        <ele>360.232</ele>
        <time>2012-07-27T08:27:38Z</time>
      </trkpt>
      <trkpt lat="47.31603" lon="4.99395">
        <ele>362.243</ele>
        <time>2012-07-27T08:27:49Z</time>
      </trkpt>
      <trkpt lat="47.31618" lon="4.99398">
        <ele>364.132</ele>
        <time>2012-07-27T08:28:00Z</time>
      </trkpt>
      <trkpt lat="47.31632" lon="4.994">
        <ele>365.701</ele>
        <time>2012-07-27T08:28:11Z</time>
      </trkpt>
      <trkpt lat="47.31648" lon="4.99402">
        <ele>360.959</ele>
        <time>2012-07-27T08:28:22Z</time>
      </trkpt>
      <trkpt lat="47.3166" lon="4.9939">
        <ele>358.046</ele>
        <time>2012-07-27T08:28:33Z</time>
      </trkpt>
      <trkpt lat="47.31667" lon="4.99378">
        <ele>357.547</ele>
        <time>2012-07-27T08:28:44Z</time>
      </trkpt>
      <trkpt lat="47.3167" lon="4.9936">
        <ele>359.097</ele>
        <time>2012-07-27T08:28:55Z</time>
      </trkpt>
      <trkpt lat="47.31673" lon="4.99345">
        <ele>359.022</ele>
        <time>2012-07-27T08:29:06Z</time>
      </trkpt>
      <trkpt lat="47.31673" lon="4.99328">
        <ele>360.751</ele>
        <time>2012-07-27T08:29:17Z</time>
      </trkpt>
      <trkpt lat="47.31677" lon="4.99307">
        <ele>359.358</ele>
        <time>2012-07-27T08:29:28Z</time>
      </trkpt>
      <trkpt lat="47.31678" lon="4.99287">
        <ele>359.171</ele>
        <time>2012-07-27T08:29:39Z</time>
      </trkpt>
      <trkpt lat="47.31682" lon="4.99268">
        <ele>360.045</ele>
        <time>2012-07-27T08:29:50Z</time>
      </trkpt>
      <trkpt lat="47.31682" lon="4.99247">
        <ele>360.958</ele>
        <time>2012-07-27T08:30:01Z</time>
      </trkpt>
      <trkpt lat="47.3168" lon="4.99235">
        <ele>364.419</ele>
        <time>2012-07-27T08:30:12Z</time>
      </trkpt>
      <trkpt lat="47.31683" lon="4.99215">
        <ele>363.718</ele>
        <time>2012-07-27T08:30:23Z</time>
      </trkpt>
      <trkpt lat="47.31685" lon="4.99192">
        <ele>362.9</ele>
        <time>2012-07-27T08:30:34Z</time>
      </trkpt>
      <trkpt lat="47.31687" lon="4.99178">
        <ele>363.96</ele>
        <time>2012-07-27T08:30:45Z</time>
      </trkpt>
      <trkpt lat="47.31692" lon="4.99157">
        <ele>365.361</ele>
        <time>2012-07-27T08:30:56Z</time>
      </trkpt>
      <trkpt lat="47.31695" lon="4.99135">
        <ele>365.346</ele>
        <time>2012-07-27T08:31:07Z</time>
      </trkpt>
      <trkpt lat="47.31697" lon="4.99118">
        <ele>365.18</ele>
        <time>2012-07-27T08:31:18Z</time>
      </trkpt>
      <trkpt lat="47.317" lon="4.99098">
        <ele>365.409</ele>
        <time>2012-07-27T08:31:29Z</time>
      </trkpt>
      <trkpt lat="47.317" lon="4.9908">
        <ele>367.591</ele>
        <time>2012-07-27T08:31:40Z</time>
      </trkpt>
      <trkpt lat="47.31695" lon="4.99063">
        <ele>369.508</ele>
        <time>2012-07-27T08:31:51Z</time>
      </trkpt>
      <trkpt lat="47.31695" lon="4.9904">
        <ele>370.069</ele>
        <time>2012-07-27T08:32:02Z</time>
      </trkpt>
      <trkpt lat="47.31693" lon="4.9902">
        <ele>369.636</ele>
        <time>2012-07-27T08:32:13Z</time>
      </trkpt>
      <trkpt lat="47.31693" lon="4.98997">
        <ele>371.474</ele>
        <time>2012-07-27T08:32:24Z</time>
      </trkpt>
      <trkpt lat="47.3169" lon="4.98977">
        <ele>373.639</ele>
        <time>2012-07-27T08:32:35Z</time>
      </trkpt>
      <trkpt lat="47.31688" lon="4.98962">
        <ele>376.055</ele>
        <time>2012-07-27T08:32:46Z</time>
      </trkpt>
      <trkpt lat="47.31687" lon="4.9894">
        <ele>376.809</ele>
        <time>2012-07-27T08:32:57Z</time>
      </trkpt>
      <trkpt lat="47.31682" lon="4.9893">
        <ele>380.899</ele>
        <time>2012-07-27T08:33:08Z</time>
      </trkpt>
      <trkpt lat="47.3168" lon="4.9892">
        <ele>381.202</ele>
        <time>2012-07-27T08:33:19Z</time>
      </trkpt>
      <trkpt lat="47.3168" lon="4.9892">
        <ele>381.202</ele>
        <time>2012-07-27T08:33:30Z</time>
      </trkpt>
      <trkpt lat="47.3168" lon="4.98917">
        <ele>381.028</ele>
        <time>2012-07-27T08:33:41Z</time>
      </trkpt>
      <trkpt lat="47.31682" lon="4.98917">
        <ele>380.942</ele>
        <time>2012-07-27T08:33:52Z</time>
      </trkpt>
      <trkpt lat="47.31682" lon="4.98917">
        <ele>380.942</ele>
        <time>2012-07-27T08:34:03Z</time>
      </trkpt>
      <trkpt lat="47.31682" lon="4.98917">
        <ele>380.942</ele>
        <time>2012-07-27T08:34:14Z</time>
      </trkpt>
      <trkpt lat="47.31682" lon="4.98912">
        <ele>380.911</ele>
        <time>2012-07-27T08:34:25Z</time>
      </trkpt>
      <trkpt lat="47.31693" lon="4.98895">
        <ele>379.339</ele>
        <time>2012-07-27T08:34:36Z</time>
      </trkpt>
      <trkpt lat="47.31702" lon="4.9888">
        <ele>378.599</ele>
        <time>2012-07-27T08:34:47Z</time>
      </trkpt>
      <trkpt lat="47.3171" lon="4.98868">
        <ele>377.146</ele>
        <time>2012-07-27T08:34:58Z</time>
      </trkpt>
      <trkpt lat="47.31722" lon="4.98857">
        <ele>375.965</ele>
        <time>2012-07-27T08:35:09Z</time>
      </trkpt>
      <trkpt lat="47.3173" lon="4.9883">
        <ele>375.502</ele>
        <time>2012-07-27T08:35:20Z</time>
      </trkpt>
      <trkpt lat="47.3174" lon="4.98813">
        <ele>376.329</ele>
        <time>2012-07-27T08:35:31Z</time>
      </trkpt>
      <trkpt lat="47.31757" lon="4.98805">
        <ele>375.546</ele>
        <time>2012-07-27T08:35:42Z</time>
      </trkpt>
      <trkpt lat="47.31768" lon="4.98805">
        <ele>374.285</ele>
        <time>2012-07-27T08:35:53Z</time>
      </trkpt>
      <trkpt lat="47.31782" lon="4.98803">
        <ele>372.276</ele>
        <time>2012-07-27T08:36:04Z</time>
      </trkpt>
      <trkpt lat="47.318" lon="4.98805">
        <ele>366.585</ele>
        <time>2012-07-27T08:36:15Z</time>
      </trkpt>
      <trkpt lat="47.31815" lon="4.98808">
        <ele>363.479</ele>
        <time>2012-07-27T08:36:26Z</time>
      </trkpt>
      <trkpt lat="47.31828" lon="4.9881">
        <ele>360.849</ele>
        <time>2012-07-27T08:36:37Z</time>
      </trkpt>
      <trkpt lat="47.31845" lon="4.98815">
        <ele>357.631</ele>
        <time>2012-07-27T08:36:48Z</time>
      </trkpt>
      <trkpt lat="47.31862" lon="4.98818">
        <ele>355.643</ele>
        <time>2012-07-27T08:36:59Z</time>
      </trkpt>
      <trkpt lat="47.31875" lon="4.9882">
        <ele>353.944</ele>
        <time>2012-07-27T08:37:10Z</time>
      </trkpt>
      <trkpt lat="47.31888" lon="4.9882">
        <ele>351.717</ele>
        <time>2012-07-27T08:37:21Z</time>
      </trkpt>
      <trkpt lat="47.31893" lon="4.98813">
        <ele>350.458</ele>
        <time>2012-07-27T08:37:32Z</time>
      </trkpt>
      <trkpt lat="47.3189" lon="4.98807">
        <ele>350.936</ele>
        <time>2012-07-27T08:37:43Z</time>
      </trkpt>
      <trkpt lat="47.31888" lon="4.98792">
        <ele>351.62</ele>
        <time>2012-07-27T08:37:54Z</time>
      </trkpt>
      <trkpt lat="47.31885" lon="4.98778">
        <ele>351.524</ele>
        <time>2012-07-27T08:38:05Z</time>
      </trkpt>
      <trkpt lat="47.31888" lon="4.98755">
        <ele>349.561</ele>
        <time>2012-07-27T08:38:16Z</time>
      </trkpt>
      <trkpt lat="47.3189" lon="4.98728">
        <ele>351.006</ele>
        <time>2012-07-27T08:38:27Z</time>
      </trkpt>
      <trkpt lat="47.3189" lon="4.98703">
        <ele>352.01</ele>
        <time>2012-07-27T08:38:38Z</time>
      </trkpt>
      <trkpt lat="47.3189" lon="4.98685">
        <ele>352.902</ele>
        <time>2012-07-27T08:38:49Z</time>
      </trkpt>
      <trkpt lat="47.3189" lon="4.98667">
        <ele>353.973</ele>
        <time>2012-07-27T08:39:00Z</time>
      </trkpt>
      <trkpt lat="47.3189" lon="4.9865">
        <ele>354.192</ele>
        <time>2012-07-27T08:39:11Z</time>
      </trkpt>
      <trkpt lat="47.31892" lon="4.98628">
        <ele>352.429</ele>
        <time>2012-07-27T08:39:22Z</time>
      </trkpt>
      <trkpt lat="47.31893" lon="4.98612">
        <ele>352.728</ele>
        <time>2012-07-27T08:39:33Z</time>
      </trkpt>
      <trkpt lat="47.3189" lon="4.9859">
        <ele>353.151</ele>
        <time>2012-07-27T08:39:44Z</time>
      </trkpt>
      <trkpt lat="47.31897" lon="4.98557">
        <ele>352.255</ele>
        <time>2012-07-27T08:39:55Z</time>
      </trkpt>
      <trkpt lat="47.31897" lon="4.98535">
        <ele>350.721</ele>
        <time>2012-07-27T08:40:06Z</time>
      </trkpt>
      <trkpt lat="47.319" lon="4.98508">
        <ele>348.425</ele>
        <time>2012-07-27T08:40:17Z</time>
      </trkpt>
      <trkpt lat="47.31905" lon="4.98482">
        <ele>348.137</ele>
        <time>2012-07-27T08:40:28Z</time>
      </trkpt>
      <trkpt lat="47.31905" lon="4.98457">
        <ele>348.819</ele>
        <time>2012-07-27T08:40:39Z</time>
      </trkpt>
      <trkpt lat="47.31903" lon="4.98437">
        <ele>349.058</ele>
        <time>2012-07-27T08:40:50Z</time>
      </trkpt>
      <trkpt lat="47.31903" lon="4.98413">
        <ele>350.711</ele>
        <time>2012-07-27T08:41:01Z</time>
      </trkpt>
      <trkpt lat="47.31905" lon="4.98395">
        <ele>351.865</ele>
        <time>2012-07-27T08:41:12Z</time>
      </trkpt>
      <trkpt lat="47.31907" lon="4.98368">
        <ele>351.51</ele>
        <time>2012-07-27T08:41:23Z</time>
      </trkpt>
      <trkpt lat="47.31905" lon="4.98345">
        <ele>350.575</ele>
        <time>2012-07-27T08:41:34Z</time>
      </trkpt>
      <trkpt lat="47.31903" lon="4.98332">
        <ele>350.071</ele>
        <time>2012-07-27T08:41:45Z</time>
      </trkpt>
      <trkpt lat="47.31903" lon="4.98312">
        <ele>351.045</ele>
        <time>2012-07-27T08:41:56Z</time>
      </trkpt>
      <trkpt lat="47.31903" lon="4.98292">
        <ele>349.236</ele>
        <time>2012-07-27T08:42:07Z</time>
      </trkpt>
      <trkpt lat="47.31905" lon="4.98267">
        <ele>350.041</ele>
        <time>2012-07-27T08:42:18Z</time>
      </trkpt>
      <trkpt lat="47.319" lon="4.9824">
        <ele>350.996</ele>
        <time>2012-07-27T08:42:29Z</time>
      </trkpt>
      <trkpt lat="47.31897" lon="4.98223">
        <ele>352.844</ele>
        <time>2012-07-27T08:42:40Z</time>
      </trkpt>
      <trkpt lat="47.31892" lon="4.98205">
        <ele>350.145</ele>
        <time>2012-07-27T08:42:51Z</time>
      </trkpt>
      <trkpt lat="47.31887" lon="4.98177">
        <ele>347.775</ele>
        <time>2012-07-27T08:43:02Z</time>
      </trkpt>
      <trkpt lat="47.31882" lon="4.98155">
        <ele>348.6</ele>
        <time>2012-07-27T08:43:13Z</time>
      </trkpt>
      <trkpt lat="47.31878" lon="4.98132">
        <ele>349.211</ele>
        <time>2012-07-27T08:43:24Z</time>
      </trkpt>
      <trkpt lat="47.31873" lon="4.98108">
        <ele>350.739</ele>
        <time>2012-07-27T08:43:35Z</time>
      </trkpt>
      <trkpt lat="47.3187" lon="4.98092">
        <ele>352.661</ele>
        <time>2012-07-27T08:43:46Z</time>
      </trkpt>
      <trkpt lat="47.31868" lon="4.98072">
        <ele>352.865</ele>
        <time>2012-07-27T08:43:57Z</time>
      </trkpt>
      <trkpt lat="47.31867" lon="4.98055">
        <ele>352.591</ele>
        <time>2012-07-27T08:44:08Z</time>
      </trkpt>
      <trkpt lat="47.31863" lon="4.98042">
        <ele>352.399</ele>
        <time>2012-07-27T08:44:19Z</time>
      </trkpt>
      <trkpt lat="47.31858" lon="4.98028">
        <ele>353.102</ele>
        <time>2012-07-27T08:44:30Z</time>
      </trkpt>
      <trkpt lat="47.31855" lon="4.9801">
        <ele>353.347</ele>
        <time>2012-07-27T08:44:41Z</time>
      </trkpt>
      <trkpt lat="47.31852" lon="4.9799">
        <ele>354.06</ele>
        <time>2012-07-27T08:44:52Z</time>
      </trkpt>
      <trkpt lat="47.3185" lon="4.9798">
        <ele>353.495</ele>
        <time>2012-07-27T08:45:03Z</time>
      </trkpt>
      <trkpt lat="47.31847" lon="4.97962">
        <ele>353.417</ele>
        <time>2012-07-27T08:45:14Z</time>
      </trkpt>
      <trkpt lat="47.31843" lon="4.9794">
        <ele>356.545</ele>
        <time>2012-07-27T08:45:25Z</time>
      </trkpt>
      <trkpt lat="47.31842" lon="4.97928">
        <ele>359.35</ele>
        <time>2012-07-27T08:45:36Z</time>
      </trkpt>
      <trkpt lat="47.3184" lon="4.97913">
        <ele>358.356</ele>
        <time>2012-07-27T08:45:47Z</time>
      </trkpt>
      <trkpt lat="47.31837" lon="4.97902">
        <ele>357.297</ele>
        <time>2012-07-27T08:45:58Z</time>
      </trkpt>
      <trkpt lat="47.31833" lon="4.97887">
        <ele>358.016</ele>
        <time>2012-07-27T08:46:09Z</time>
      </trkpt>
      <trkpt lat="47.31828" lon="4.97875">
        <ele>355.761</ele>
        <time>2012-07-27T08:46:20Z</time>
      </trkpt>
      <trkpt lat="47.31822" lon="4.97855">
        <ele>355.978</ele>
        <time>2012-07-27T08:46:31Z</time>
      </trkpt>
      <trkpt lat="47.31818" lon="4.9784">
        <ele>357.75</ele>
        <time>2012-07-27T08:46:42Z</time>
      </trkpt>
      <trkpt lat="47.31812" lon="4.9782">
        <ele>361.409</ele>
        <time>2012-07-27T08:46:53Z</time>
      </trkpt>
      <trkpt lat="47.31812" lon="4.97802">
        <ele>362.981</ele>
        <time>2012-07-27T08:47:04Z</time>
      </trkpt>
      <trkpt lat="47.31807" lon="4.9778">
        <ele>361.299</ele>
        <time>2012-07-27T08:47:15Z</time>
      </trkpt>
      <trkpt lat="47.31803" lon="4.9776">
        <ele>362.327</ele>
        <time>2012-07-27T08:47:26Z</time>
      </trkpt>
      <trkpt lat="47.31802" lon="4.9774">
        <ele>362.218</ele>
        <time>2012-07-27T08:47:37Z</time>
      </trkpt>
      <trkpt lat="47.31797" lon="4.97722">
        <ele>362.711</ele>
        <time>2012-07-27T08:47:48Z</time>
      </trkpt>
      <trkpt lat="47.31793" lon="4.97703">
        <ele>362.025</ele>
        <time>2012-07-27T08:47:59Z</time>
      </trkpt>
      <trkpt lat="47.31788" lon="4.97682">
        <ele>359.166</ele>
        <time>2012-07-27T08:48:10Z</time>
      </trkpt>
      <trkpt lat="47.31785" lon="4.97667">
        <ele>359.224</ele>
        <time>2012-07-27T08:48:21Z</time>
      </trkpt>
      <trkpt lat="47.3178" lon="4.97655">
        <ele>359.392</ele>
        <time>2012-07-27T08:48:32Z</time>
      </trkpt>
      <trkpt lat="47.3177" lon="4.97643">
        <ele>360.481</ele>
        <time>2012-07-27T08:48:43Z</time>
      </trkpt>
      <trkpt lat="47.31762" lon="4.9763">
        <ele>360.254</ele>
        <time>2012-07-27T08:48:54Z</time>
      </trkpt>
      <trkpt lat="47.31753" lon="4.97622">
        <ele>360.483</ele>
        <time>2012-07-27T08:49:05Z</time>
      </trkpt>
      <trkpt lat="47.31747" lon="4.9761">
        <ele>361.191</ele>
        <time>2012-07-27T08:49:16Z</time>
      </trkpt>
      <trkpt lat="47.3174" lon="4.97597">
        <ele>360.86</ele>
        <time>2012-07-27T08:49:27Z</time>
      </trkpt>
      <trkpt lat="47.31727" lon="4.97582">
        <ele>361.44</ele>
        <time>2012-07-27T08:49:38Z</time>
      </trkpt>
      <trkpt lat="47.31713" lon="4.97568">
        <ele>361.22</ele>
        <time>2012-07-27T08:49:49Z</time>
      </trkpt>
      <trkpt lat="47.31705" lon="4.97558">
        <ele>362.088</ele>
        <time>2012-07-27T08:50:00Z</time>
      </trkpt>
      <trkpt lat="47.31695" lon="4.97545">
        <ele>361.109</ele>
        <time>2012-07-27T08:50:11Z</time>
      </trkpt>
      <trkpt lat="47.3168" lon="4.97533">
        <ele>357.622</ele>
        <time>2012-07-27T08:50:22Z</time>
      </trkpt>
      <trkpt lat="47.3167" lon="4.97517">
        <ele>356.875</ele>
        <time>2012-07-27T08:50:33Z</time>
      </trkpt>
      <trkpt lat="47.31658" lon="4.97497">
        <ele>357.032</ele>
        <time>2012-07-27T08:50:44Z</time>
      </trkpt>
      <trkpt lat="47.31645" lon="4.9748">
        <ele>355.713</ele>
        <time>2012-07-27T08:50:55Z</time>
      </trkpt>
      <trkpt lat="47.31635" lon="4.97467">
        <ele>355.976</ele>
        <time>2012-07-27T08:51:06Z</time>
      </trkpt>
      <trkpt lat="47.31623" lon="4.97452">
        <ele>356.202</ele>
        <time>2012-07-27T08:51:17Z</time>
      </trkpt>
      <trkpt lat="47.31615" lon="4.9744">
        <ele>358.187</ele>
        <time>2012-07-27T08:51:28Z</time>
      </trkpt>
      <trkpt lat="47.31598" lon="4.97427">
        <ele>359.701</ele>
        <time>2012-07-27T08:51:39Z</time>
      </trkpt>
      <trkpt lat="47.31585" lon="4.97417">
        <ele>358.314</ele>
        <time>2012-07-27T08:51:50Z</time>
      </trkpt>
      <trkpt lat="47.31573" lon="4.97402">
        <ele>357.755</ele>
        <time>2012-07-27T08:52:01Z</time>
      </trkpt>
      <trkpt lat="47.31562" lon="4.97388">
        <ele>358.581</ele>
        <time>2012-07-27T08:52:12Z</time>
      </trkpt>
      <trkpt lat="47.31547" lon="4.97375">
        <ele>357.783</ele>
        <time>2012-07-27T08:52:23Z</time>
      </trkpt>
      <trkpt lat="47.31532" lon="4.97367">
        <ele>357.391</ele>
        <time>2012-07-27T08:52:34Z</time>
      </trkpt>
      <trkpt lat="47.31522" lon="4.97363">
        <ele>357.546</ele>
        <time>2012-07-27T08:52:45Z</time>
      </trkpt>
      <trkpt lat="47.31513" lon="4.97353">
        <ele>357.8</ele>
        <time>2012-07-27T08:52:56Z</time>
      </trkpt>
      <trkpt lat="47.31502" lon="4.97337">
        <ele>359.611</ele>
        <time>2012-07-27T08:53:07Z</time>
      </trkpt>
      <trkpt lat="47.31487" lon="4.97322">
        <ele>360.247</ele>
        <time>2012-07-27T08:53:18Z</time>
      </trkpt>
      <trkpt lat="47.31475" lon="4.9731">
        <ele>361.247</ele>
        <time>2012-07-27T08:53:29Z</time>
      </trkpt>
      <trkpt lat="47.31463" lon="4.97302">
        <ele>361.003</ele>
        <time>2012-07-27T08:53:40Z</time>
      </trkpt>
      <trkpt lat="47.31455" lon="4.9729">
        <ele>360.967</ele>
        <time>2012-07-27T08:53:51Z</time>
      </trkpt>
      <trkpt lat="47.31447" lon="4.97277">
        <ele>361.218</ele>
        <time>2012-07-27T08:54:02Z</time>
      </trkpt>
      <trkpt lat="47.31438" lon="4.97267">
        <ele>362.193</ele>
        <time>2012-07-27T08:54:13Z</time>
      </trkpt>
      <trkpt lat="47.3143" lon="4.97255">
        <ele>362.172</ele>
        <time>2012-07-27T08:54:24Z</time>
      </trkpt>
      <trkpt lat="47.31418" lon="4.97242">
        <ele>362.647</ele>
        <time>2012-07-27T08:54:35Z</time>
      </trkpt>
      <trkpt lat="47.31402" lon="4.97228">
        <ele>361.564</ele>
        <time>2012-07-27T08:54:46Z</time>
      </trkpt>
      <trkpt lat="47.3139" lon="4.97215">
        <ele>360.967</ele>
        <time>2012-07-27T08:54:57Z</time>
      </trkpt>
      <trkpt lat="47.31375" lon="4.97203">
        <ele>361.157</ele>
        <time>2012-07-27T08:55:08Z</time>
      </trkpt>
      <trkpt lat="47.31355" lon="4.97195">
        <ele>358.639</ele>
        <time>2012-07-27T08:55:19Z</time>
      </trkpt>
      <trkpt lat="47.31355" lon="4.97195">
        <ele>358.732</ele>
        <time>2012-07-27T08:55:30Z</time>
      </trkpt>
      <trkpt lat="47.31353" lon="4.97195">
        <ele>357.224</ele>
        <time>2012-07-27T08:55:41Z</time>
      </trkpt>
      <trkpt lat="47.31353" lon="4.97195">
        <ele>357.244</ele>
        <time>2012-07-27T08:55:52Z</time>
      </trkpt>
      <trkpt lat="47.31352" lon="4.97195">
        <ele>356.824</ele>
        <time>2012-07-27T08:56:03Z</time>
      </trkpt>
      <trkpt lat="47.31348" lon="4.97193">
        <ele>357.831</ele>
        <time>2012-07-27T08:56:14Z</time>
      </trkpt>
      <trkpt lat="47.31333" lon="4.9719">
        <ele>358.495</ele>
        <time>2012-07-27T08:56:25Z</time>
      </trkpt>
      <trkpt lat="47.3132" lon="4.97193">
        <ele>357.671</ele>
        <time>2012-07-27T08:56:36Z</time>
      </trkpt>
      <trkpt lat="47.31305" lon="4.97193">
        <ele>357.628</ele>
        <time>2012-07-27T08:56:47Z</time>
      </trkpt>
      <trkpt lat="47.31293" lon="4.9719">
        <ele>356.885</ele>
        <time>2012-07-27T08:56:58Z</time>
      </trkpt>
      <trkpt lat="47.31292" lon="4.97188">
        <ele>357.984</ele>
        <time>2012-07-27T08:57:09Z</time>
      </trkpt>
      <trkpt lat="47.31285" lon="4.9718">
        <ele>360.327</ele>
        <time>2012-07-27T08:57:20Z</time>
      </trkpt>
      <trkpt lat="47.31273" lon="4.97175">
        <ele>365.204</ele>
        <time>2012-07-27T08:57:31Z</time>
      </trkpt>
      <trkpt lat="47.31268" lon="4.97168">
        <ele>367.248</ele>
        <time>2012-07-27T08:57:42Z</time>
      </trkpt>
      <trkpt lat="47.3126" lon="4.97163">
        <ele>369.424</ele>
        <time>2012-07-27T08:57:53Z</time>
      </trkpt>
      <trkpt lat="47.3125" lon="4.97152">
        <ele>374.903</ele>
        <time>2012-07-27T08:58:04Z</time>
      </trkpt>
      <trkpt lat="47.3124" lon="4.97135">
        <ele>375.545</ele>
        <time>2012-07-27T08:58:15Z</time>
      </trkpt>
      <trkpt lat="47.3123" lon="4.97118">
        <ele>376.802</ele>
        <time>2012-07-27T08:58:26Z</time>
      </trkpt>
      <trkpt lat="47.31218" lon="4.97102">
        <ele>377.522</ele>
        <time>2012-07-27T08:58:37Z</time>
      </trkpt>
      <trkpt lat="47.31215" lon="4.97085">
        <ele>376.717</ele>
        <time>2012-07-27T08:58:48Z</time>
      </trkpt>
      <trkpt lat="47.31207" lon="4.97068">
        <ele>376.909</ele>
        <time>2012-07-27T08:58:59Z</time>
      </trkpt>
      <trkpt lat="47.31203" lon="4.97055">
        <ele>376.685</ele>
        <time>2012-07-27T08:59:10Z</time>
      </trkpt>
      <trkpt lat="47.31198" lon="4.97043">
        <ele>376.529</ele>
        <time>2012-07-27T08:59:21Z</time>
      </trkpt>
      <trkpt lat="47.31192" lon="4.97033">
        <ele>375.923</ele>
        <time>2012-07-27T08:59:32Z</time>
      </trkpt>
      <trkpt lat="47.31183" lon="4.97022">
        <ele>374.665</ele>
        <time>2012-07-27T08:59:43Z</time>
      </trkpt>
      <trkpt lat="47.31178" lon="4.97017">
        <ele>374.194</ele>
        <time>2012-07-27T08:59:54Z</time>
      </trkpt>
      <trkpt lat="47.3117" lon="4.9701">
        <ele>373.172</ele>
        <time>2012-07-27T09:00:05Z</time>
      </trkpt>
      <trkpt lat="47.3116" lon="4.97005">
        <ele>372.474</ele>
        <time>2012-07-27T09:00:16Z</time>
      </trkpt>
      <trkpt lat="47.3115" lon="4.97007">
        <ele>371.516</ele>
        <time>2012-07-27T09:00:27Z</time>
      </trkpt>
      <trkpt lat="47.3114" lon="4.97007">
        <ele>371.222</ele>
        <time>2012-07-27T09:00:38Z</time>
      </trkpt>
      <trkpt lat="47.31128" lon="4.9701">
        <ele>371.278</ele>
        <time>2012-07-27T09:00:49Z</time>
      </trkpt>
      <trkpt lat="47.31115" lon="4.97017">
        <ele>372.345</ele>
        <time>2012-07-27T09:01:00Z</time>
      </trkpt>
      <trkpt lat="47.31098" lon="4.97023">
        <ele>372.792</ele>
        <time>2012-07-27T09:01:11Z</time>
      </trkpt>
      <trkpt lat="47.31088" lon="4.97028">
        <ele>372.692</ele>
        <time>2012-07-27T09:01:22Z</time>
      </trkpt>
      <trkpt lat="47.31082" lon="4.9703">
        <ele>372.605</ele>
        <time>2012-07-27T09:01:33Z</time>
      </trkpt>
      <trkpt lat="47.31067" lon="4.97033">
        <ele>373.673</ele>
        <time>2012-07-27T09:01:44Z</time>
      </trkpt>
      <trkpt lat="47.31055" lon="4.9704">
        <ele>373.869</ele>
        <time>2012-07-27T09:01:55Z</time>
      </trkpt>
      <trkpt lat="47.31035" lon="4.97052">
        <ele>374.091</ele>
        <time>2012-07-27T09:02:06Z</time>
      </trkpt>
      <trkpt lat="47.31023" lon="4.97058">
        <ele>375.002</ele>
        <time>2012-07-27T09:02:17Z</time>
      </trkpt>
      <trkpt lat="47.31018" lon="4.97065">
        <ele>375.59</ele>
        <time>2012-07-27T09:02:28Z</time>
      </trkpt>
      <trkpt lat="47.31005" lon="4.97082">
        <ele>375.993</ele>
        <time>2012-07-27T09:02:39Z</time>
      </trkpt>
      <trkpt lat="47.30997" lon="4.97093">
        <ele>377.07</ele>
        <time>2012-07-27T09:02:50Z</time>
      </trkpt>
      <trkpt lat="47.30987" lon="4.97103">
        <ele>377.57</ele>
        <time>2012-07-27T09:03:01Z</time>
      </trkpt>
      <trkpt lat="47.30972" lon="4.97117">
        <ele>377.116</ele>
        <time>2012-07-27T09:03:12Z</time>
      </trkpt>
      <trkpt lat="47.30962" lon="4.97127">
        <ele>375.603</ele>
        <time>2012-07-27T09:03:23Z</time>
      </trkpt>
      <trkpt lat="47.3095" lon="4.97137">
        <ele>374.671</ele>
        <time>2012-07-27T09:03:34Z</time>
      </trkpt>
      <trkpt lat="47.3094" lon="4.97148">
        <ele>374.648</ele>
        <time>2012-07-27T09:03:45Z</time>
      </trkpt>
      <trkpt lat="47.3093" lon="4.97165">
        <ele>375.106</ele>
        <time>2012-07-27T09:03:56Z</time>
      </trkpt>
      <trkpt lat="47.30922" lon="4.97183">
        <ele>374.132</ele>
        <time>2012-07-27T09:04:07Z</time>
      </trkpt>
      <trkpt lat="47.30913" lon="4.97192">
        <ele>373.385</ele>
        <time>2012-07-27T09:04:18Z</time>
      </trkpt>
      <trkpt lat="47.30903" lon="4.97192">
        <ele>370.4</ele>
        <time>2012-07-27T09:04:29Z</time>
      </trkpt>
      <trkpt lat="47.30902" lon="4.97192">
        <ele>369.95</ele>
        <time>2012-07-27T09:04:40Z</time>
      </trkpt>
      <trkpt lat="47.30902" lon="4.97192">
        <ele>369.95</ele>
        <time>2012-07-27T09:04:51Z</time>
      </trkpt>
      <trkpt lat="47.30902" lon="4.97193">
        <ele>369.642</ele>
        <time>2012-07-27T09:05:02Z</time>
      </trkpt>
      <trkpt lat="47.309" lon="4.97193">
        <ele>368.645</ele>
        <time>2012-07-27T09:05:13Z</time>
      </trkpt>
      <trkpt lat="47.309" lon="4.97193">
        <ele>368.645</ele>
        <time>2012-07-27T09:05:24Z</time>
      </trkpt>
      <trkpt lat="47.309" lon="4.97193">
        <ele>368.645</ele>
        <time>2012-07-27T09:05:35Z</time>
      </trkpt>
      <trkpt lat="47.309" lon="4.97193">
        <ele>368.265</ele>
        <time>2012-07-27T09:05:46Z</time>
      </trkpt>
      <trkpt lat="47.30898" lon="4.97193">
        <ele>367.874</ele>
        <time>2012-07-27T09:05:57Z</time>
      </trkpt>
      <trkpt lat="47.30898" lon="4.97193">
        <ele>367.874</ele>
        <time>2012-07-27T09:06:08Z</time>
      </trkpt>
      <trkpt lat="47.30897" lon="4.9719">
        <ele>366.164</ele>
        <time>2012-07-27T09:06:19Z</time>
      </trkpt>
      <trkpt lat="47.30898" lon="4.97182">
        <ele>364.193</ele>
        <time>2012-07-27T09:06:30Z</time>
      </trkpt>
      <trkpt lat="47.30902" lon="4.97168">
        <ele>361.181</ele>
        <time>2012-07-27T09:06:41Z</time>
      </trkpt>
      <trkpt lat="47.30903" lon="4.97152">
        <ele>359.377</ele>
        <time>2012-07-27T09:06:52Z</time>
      </trkpt>
      <trkpt lat="47.30902" lon="4.97128">
        <ele>357.345</ele>
        <time>2012-07-27T09:07:03Z</time>
      </trkpt>
      <trkpt lat="47.309" lon="4.97108">
        <ele>356.814</ele>
        <time>2012-07-27T09:07:14Z</time>
      </trkpt>
      <trkpt lat="47.30892" lon="4.97088">
        <ele>356.999</ele>
        <time>2012-07-27T09:07:25Z</time>
      </trkpt>
      <trkpt lat="47.30893" lon="4.97078">
        <ele>359.983</ele>
        <time>2012-07-27T09:07:36Z</time>
      </trkpt>
      <trkpt lat="47.309" lon="4.97063">
        <ele>361.883</ele>
        <time>2012-07-27T09:07:47Z</time>
      </trkpt>
      <trkpt lat="47.309" lon="4.97043">
        <ele>363.04</ele>
        <time>2012-07-27T09:07:58Z</time>
      </trkpt>
      <trkpt lat="47.30893" lon="4.97035">
        <ele>363.724</ele>
        <time>2012-07-27T09:08:09Z</time>
      </trkpt>
      <trkpt lat="47.30885" lon="4.9703">
        <ele>365.962</ele>
        <time>2012-07-27T09:08:20Z</time>
      </trkpt>
      <trkpt lat="47.30873" lon="4.97023">
        <ele>367.034</ele>
        <time>2012-07-27T09:08:31Z</time>
      </trkpt>
      <trkpt lat="47.30862" lon="4.97022">
        <ele>371.136</ele>
        <time>2012-07-27T09:08:42Z</time>
      </trkpt>
      <trkpt lat="47.30852" lon="4.97022">
        <ele>372.134</ele>
        <time>2012-07-27T09:08:53Z</time>
      </trkpt>
      <trkpt lat="47.3084" lon="4.9702">
        <ele>372.876</ele>
        <time>2012-07-27T09:09:04Z</time>
      </trkpt>
      <trkpt lat="47.30825" lon="4.97022">
        <ele>376.262</ele>
        <time>2012-07-27T09:09:15Z</time>
      </trkpt>
      <trkpt lat="47.30808" lon="4.97022">
        <ele>379.561</ele>
        <time>2012-07-27T09:09:26Z</time>
      </trkpt>
      <trkpt lat="47.3079" lon="4.97018">
        <ele>379.24</ele>
        <time>2012-07-27T09:09:37Z</time>
      </trkpt>
      <trkpt lat="47.30778" lon="4.97018">
        <ele>383.197</ele>
        <time>2012-07-27T09:09:48Z</time>
      </trkpt>
      <trkpt lat="47.30767" lon="4.9702">
        <ele>384.631</ele>
        <time>2012-07-27T09:09:59Z</time>
      </trkpt>
      <trkpt lat="47.30755" lon="4.9702">
        <ele>384.468</ele>
        <time>2012-07-27T09:10:10Z</time>
      </trkpt>
      <trkpt lat="47.30743" lon="4.97015">
        <ele>382.133</ele>
        <time>2012-07-27T09:10:21Z</time>
      </trkpt>
      <trkpt lat="47.3073" lon="4.97013">
        <ele>382.913</ele>
        <time>2012-07-27T09:10:32Z</time>
      </trkpt>
      <trkpt lat="47.30717" lon="4.97007">
        <ele>380.745</ele>
        <time>2012-07-27T09:10:43Z</time>
      </trkpt>
      <trkpt lat="47.30702" lon="4.97005">
        <ele>380.1</ele>
        <time>2012-07-27T09:10:54Z</time>
      </trkpt>
      <trkpt lat="47.3069" lon="4.97007">
        <ele>381.395</ele>
        <time>2012-07-27T09:11:05Z</time>
      </trkpt>
      <trkpt lat="47.30673" lon="4.97007">
        <ele>380.387</ele>
        <time>2012-07-27T09:11:16Z</time>
      </trkpt>
      <trkpt lat="47.30662" lon="4.9701">
        <ele>379.583</ele>
        <time>2012-07-27T09:11:27Z</time>
      </trkpt>
      <trkpt lat="47.30653" lon="4.97013">
        <ele>379.609</ele>
        <time>2012-07-27T09:11:38Z</time>
      </trkpt>
      <trkpt lat="47.3064" lon="4.97013">
        <ele>378.491</ele>
        <time>2012-07-27T09:11:49Z</time>
      </trkpt>
      <trkpt lat="47.30622" lon="4.97017">
        <ele>378.478</ele>
        <time>2012-07-27T09:12:00Z</time>
      </trkpt>
      <trkpt lat="47.30605" lon="4.97022">
        <ele>378.027</ele>
        <time>2012-07-27T09:12:11Z</time>
      </trkpt>
      <trkpt lat="47.30585" lon="4.97025">
        <ele>375.8</ele>
        <time>2012-07-27T09:12:22Z</time>
      </trkpt>
      <trkpt lat="47.30575" lon="4.97027">
        <ele>375.022</ele>
        <time>2012-07-27T09:12:33Z</time>
      </trkpt>
      <trkpt lat="47.3056" lon="4.97022">
        <ele>373.943</ele>
        <time>2012-07-27T09:12:44Z</time>
      </trkpt>
      <trkpt lat="47.30542" lon="4.97012">
        <ele>374.708</ele>
        <time>2012-07-27T09:12:55Z</time>
      </trkpt>
      <trkpt lat="47.30528" lon="4.97003">
        <ele>375.242</ele>
        <time>2012-07-27T09:13:06Z</time>
      </trkpt>
      <trkpt lat="47.30515" lon="4.96985">
        <ele>373.146</ele>
        <time>2012-07-27T09:13:17Z</time>
      </trkpt>
      <trkpt lat="47.305" lon="4.9697">
        <ele>373.674</ele>
        <time>2012-07-27T09:13:28Z</time>
      </trkpt>
      <trkpt lat="47.30488" lon="4.96955">
        <ele>376.442</ele>
        <time>2012-07-27T09:13:39Z</time>
      </trkpt>
      <trkpt lat="47.30478" lon="4.96938">
        <ele>373.924</ele>
        <time>2012-07-27T09:13:50Z</time>
      </trkpt>
      <trkpt lat="47.3047" lon="4.96923">
        <ele>374.81</ele>
        <time>2012-07-27T09:14:01Z</time>
      </trkpt>
      <trkpt lat="47.3047" lon="4.9691">
        <ele>374.734</ele>
        <time>2012-07-27T09:14:12Z</time>
      </trkpt>
      <trkpt lat="47.30463" lon="4.96907">
        <ele>375.066</ele>
        <time>2012-07-27T09:14:23Z</time>
      </trkpt>
      <trkpt lat="47.30463" lon="4.96905">
        <ele>373.164</ele>
        <time>2012-07-27T09:14:34Z</time>
      </trkpt>
      <trkpt lat="47.30447" lon="4.96893">
        <ele>373.633</ele>
        <time>2012-07-27T09:14:45Z</time>
      </trkpt>
      <trkpt lat="47.30452" lon="4.96892">
        <ele>373.36</ele>
        <time>2012-07-27T09:14:56Z</time>
      </trkpt>
      <trkpt lat="47.30448" lon="4.96892">
        <ele>378.565</ele>
        <time>2012-07-27T09:15:07Z</time>
      </trkpt>
      <trkpt lat="47.30433" lon="4.96893">
        <ele>385.002</ele>
        <time>2012-07-27T09:15:18Z</time>
      </trkpt>
      <trkpt lat="47.30422" lon="4.96888">
        <ele>391.598</ele>
        <time>2012-07-27T09:15:29Z</time>
      </trkpt>
      <trkpt lat="47.30418" lon="4.96885">
        <ele>395.66</ele>
        <time>2012-07-27T09:15:40Z</time>
      </trkpt>
      <trkpt lat="47.30407" lon="4.96883">
        <ele>399.291</ele>
        <time>2012-07-27T09:15:51Z</time>
      </trkpt>
      <trkpt lat="47.30392" lon="4.96877">
        <ele>399.655</ele>
        <time>2012-07-27T09:16:02Z</time>
      </trkpt>
      <trkpt lat="47.30382" lon="4.96865">
        <ele>401.723</ele>
        <time>2012-07-27T09:16:13Z</time>
      </trkpt>
      <trkpt lat="47.30375" lon="4.96847">
        <ele>403.24</ele>
        <time>2012-07-27T09:16:24Z</time>
      </trkpt>
      <trkpt lat="47.3037" lon="4.9683">
        <ele>406.029</ele>
        <time>2012-07-27T09:16:35Z</time>
      </trkpt>
      <trkpt lat="47.30365" lon="4.96815">
        <ele>407.537</ele>
        <time>2012-07-27T09:16:46Z</time>
      </trkpt>
      <trkpt lat="47.30372" lon="4.96798">
        <ele>408.763</ele>
        <time>2012-07-27T09:16:57Z</time>
      </trkpt>
      <trkpt lat="47.30382" lon="4.96788">
        <ele>414.1</ele>
        <time>2012-07-27T09:17:08Z</time>
      </trkpt>
      <trkpt lat="47.3038" lon="4.96775">
        <ele>417.814</ele>
        <time>2012-07-27T09:17:19Z</time>
      </trkpt>
      <trkpt lat="47.30377" lon="4.96762">
        <ele>420.142</ele>
        <time>2012-07-27T09:17:30Z</time>
      </trkpt>
      <trkpt lat="47.30377" lon="4.9675">
        <ele>421.373</ele>
        <time>2012-07-27T09:17:41Z</time>
      </trkpt>
      <trkpt lat="47.3038" lon="4.96737">
        <ele>422.807</ele>
        <time>2012-07-27T09:17:52Z</time>
      </trkpt>
      <trkpt lat="47.30387" lon="4.96715">
        <ele>423.676</ele>
        <time>2012-07-27T09:18:03Z</time>
      </trkpt>
      <trkpt lat="47.30395" lon="4.96693">
        <ele>423.311</ele>
        <time>2012-07-27T09:18:14Z</time>
      </trkpt>
      <trkpt lat="47.30407" lon="4.96677">
        <ele>424.493</ele>
        <time>2012-07-27T09:18:25Z</time>
      </trkpt>
      <trkpt lat="47.30417" lon="4.9666">
        <ele>423.997</ele>
        <time>2012-07-27T09:18:36Z</time>
      </trkpt>
      <trkpt lat="47.30425" lon="4.96643">
        <ele>423.202</ele>
        <time>2012-07-27T09:18:47Z</time>
      </trkpt>
      <trkpt lat="47.30437" lon="4.96625">
        <ele>423.676</ele>
        <time>2012-07-27T09:18:58Z</time>
      </trkpt>
      <trkpt lat="47.30447" lon="4.96607">
        <ele>424.673</ele>
        <time>2012-07-27T09:19:09Z</time>
      </trkpt>
      <trkpt lat="47.30452" lon="4.96588">
        <ele>426.236</ele>
        <time>2012-07-27T09:19:20Z</time>
      </trkpt>
      <trkpt lat="47.30455" lon="4.96567">
        <ele>428.222</ele>
        <time>2012-07-27T09:19:31Z</time>
      </trkpt>
      <trkpt lat="47.3045" lon="4.96548">
        <ele>430.924</ele>
        <time>2012-07-27T09:19:42Z</time>
      </trkpt>
      <trkpt lat="47.30447" lon="4.96527">
        <ele>432.962</ele>
        <time>2012-07-27T09:19:53Z</time>
      </trkpt>
      <trkpt lat="47.30442" lon="4.96505">
        <ele>432.375</ele>
        <time>2012-07-27T09:20:04Z</time>
      </trkpt>
      <trkpt lat="47.30433" lon="4.96487">
        <ele>432.867</ele>
        <time>2012-07-27T09:20:15Z</time>
      </trkpt>
      <trkpt lat="47.30427" lon="4.96467">
        <ele>433.476</ele>
        <time>2012-07-27T09:20:26Z</time>
      </trkpt>
      <trkpt lat="47.3042" lon="4.96448">
        <ele>435.858</ele>
        <time>2012-07-27T09:20:37Z</time>
      </trkpt>
      <trkpt lat="47.3041" lon="4.96428">
        <ele>435.407</ele>
        <time>2012-07-27T09:20:48Z</time>
      </trkpt>
      <trkpt lat="47.30402" lon="4.96408">
        <ele>436.02</ele>
        <time>2012-07-27T09:20:59Z</time>
      </trkpt>
      <trkpt lat="47.30395" lon="4.96392">
        <ele>438.223</ele>
        <time>2012-07-27T09:21:10Z</time>
      </trkpt>
      <trkpt lat="47.3039" lon="4.96375">
        <ele>440.534</ele>
        <time>2012-07-27T09:21:21Z</time>
      </trkpt>
      <trkpt lat="47.30385" lon="4.96352">
        <ele>441.951</ele>
        <time>2012-07-27T09:21:32Z</time>
      </trkpt>
      <trkpt lat="47.3038" lon="4.96335">
        <ele>441.925</ele>
        <time>2012-07-27T09:21:43Z</time>
      </trkpt>
      <trkpt lat="47.30373" lon="4.96318">
        <ele>442.05</ele>
        <time>2012-07-27T09:21:54Z</time>
      </trkpt>
      <trkpt lat="47.30362" lon="4.963">
        <ele>439.203</ele>
        <time>2012-07-27T09:22:05Z</time>
      </trkpt>
      <trkpt lat="47.30355" lon="4.96282">
        <ele>440.233</ele>
        <time>2012-07-27T09:22:16Z</time>
      </trkpt>
      <trkpt lat="47.30343" lon="4.96262">
        <ele>439.458</ele>
        <time>2012-07-27T09:22:27Z</time>
      </trkpt>
      <trkpt lat="47.30335" lon="4.96243">
        <ele>437.963</ele>
        <time>2012-07-27T09:22:38Z</time>
      </trkpt>
      <trkpt lat="47.30327" lon="4.96225">
        <ele>438.705</ele>
        <time>2012-07-27T09:22:49Z</time>
      </trkpt>
      <trkpt lat="47.30318" lon="4.96207">
        <ele>437.488</ele>
        <time>2012-07-27T09:23:00Z</time>
      </trkpt>
      <trkpt lat="47.30308" lon="4.96188">
        <ele>436.568</ele>
        <time>2012-07-27T09:23:11Z</time>
      </trkpt>
      <trkpt lat="47.30297" lon="4.96175">
        <ele>435.978</ele>
        <time>2012-07-27T09:23:22Z</time>
      </trkpt>
      <trkpt lat="47.30282" lon="4.96167">
        <ele>435.469</ele>
        <time>2012-07-27T09:23:33Z</time>
      </trkpt>
      <trkpt lat="47.30267" lon="4.96157">
        <ele>434.645</ele>
        <time>2012-07-27T09:23:44Z</time>
      </trkpt>
      <trkpt lat="47.30262" lon="4.96153">
        <ele>434.704</ele>
        <time>2012-07-27T09:23:55Z</time>
      </trkpt>
      <trkpt lat="47.3025" lon="4.96145">
        <ele>434.713</ele>
        <time>2012-07-27T09:24:06Z</time>
      </trkpt>
      <trkpt lat="47.30235" lon="4.96135">
        <ele>435.54</ele>
        <time>2012-07-27T09:24:17Z</time>
      </trkpt>
      <trkpt lat="47.3022" lon="4.96125">
        <ele>435.601</ele>
        <time>2012-07-27T09:24:28Z</time>
      </trkpt>
      <trkpt lat="47.3021" lon="4.96118">
        <ele>435.508</ele>
        <time>2012-07-27T09:24:39Z</time>
      </trkpt>
      <trkpt lat="47.30197" lon="4.96107">
        <ele>435.847</ele>
        <time>2012-07-27T09:24:50Z</time>
      </trkpt>
      <trkpt lat="47.30185" lon="4.96095">
        <ele>434.449</ele>
        <time>2012-07-27T09:25:01Z</time>
      </trkpt>
      <trkpt lat="47.30173" lon="4.96085">
        <ele>434.81</ele>
        <time>2012-07-27T09:25:12Z</time>
      </trkpt>
      <trkpt lat="47.3016" lon="4.96072">
        <ele>434.197</ele>
        <time>2012-07-27T09:25:23Z</time>
      </trkpt>
      <trkpt lat="47.30145" lon="4.96055">
        <ele>434.259</ele>
        <time>2012-07-27T09:25:34Z</time>
      </trkpt>
      <trkpt lat="47.30133" lon="4.96043">
        <ele>433.932</ele>
        <time>2012-07-27T09:25:45Z</time>
      </trkpt>
      <trkpt lat="47.30117" lon="4.96032">
        <ele>434.15</ele>
        <time>2012-07-27T09:25:56Z</time>
      </trkpt>
      <trkpt lat="47.30105" lon="4.9602">
        <ele>434.154</ele>
        <time>2012-07-27T09:26:07Z</time>
      </trkpt>
      <trkpt lat="47.3009" lon="4.96012">
        <ele>434.927</ele>
        <time>2012-07-27T09:26:18Z</time>
      </trkpt>
      <trkpt lat="47.3008" lon="4.95993">
        <ele>434.126</ele>
        <time>2012-07-27T09:26:29Z</time>
      </trkpt>
      <trkpt lat="47.30072" lon="4.95975">
        <ele>434.49</ele>
        <time>2012-07-27T09:26:40Z</time>
      </trkpt>
      <trkpt lat="47.30063" lon="4.95958">
        <ele>435.228</ele>
        <time>2012-07-27T09:26:51Z</time>
      </trkpt>
      <trkpt lat="47.30053" lon="4.95952">
        <ele>435.377</ele>
        <time>2012-07-27T09:27:02Z</time>
      </trkpt>
      <trkpt lat="47.30047" lon="4.9597">
        <ele>433.789</ele>
        <time>2012-07-27T09:27:13Z</time>
      </trkpt>
      <trkpt lat="47.3004" lon="4.9599">
        <ele>432.492</ele>
        <time>2012-07-27T09:27:24Z</time>
      </trkpt>
      <trkpt lat="47.30032" lon="4.96012">
        <ele>431.331</ele>
        <time>2012-07-27T09:27:35Z</time>
      </trkpt>
      <trkpt lat="47.30027" lon="4.9603">
        <ele>429.369</ele>
        <time>2012-07-27T09:27:46Z</time>
      </trkpt>
      <trkpt lat="47.30022" lon="4.9605">
        <ele>428.488</ele>
        <time>2012-07-27T09:27:57Z</time>
      </trkpt>
      <trkpt lat="47.30018" lon="4.96068">
        <ele>427.804</ele>
        <time>2012-07-27T09:28:08Z</time>
      </trkpt>
      <trkpt lat="47.30018" lon="4.96088">
        <ele>427.687</ele>
        <time>2012-07-27T09:28:19Z</time>
      </trkpt>
      <trkpt lat="47.30017" lon="4.96108">
        <ele>427.685</ele>
        <time>2012-07-27T09:28:30Z</time>
      </trkpt>
      <trkpt lat="47.30015" lon="4.96128">
        <ele>426.657</ele>
        <time>2012-07-27T09:28:41Z</time>
      </trkpt>
      <trkpt lat="47.30017" lon="4.96152">
        <ele>423.332</ele>
        <time>2012-07-27T09:28:52Z</time>
      </trkpt>
      <trkpt lat="47.30015" lon="4.96173">
        <ele>421.481</ele>
        <time>2012-07-27T09:29:03Z</time>
      </trkpt>
      <trkpt lat="47.30012" lon="4.96195">
        <ele>419.756</ele>
        <time>2012-07-27T09:29:14Z</time>
      </trkpt>
      <trkpt lat="47.30012" lon="4.96215">
        <ele>418.242</ele>
        <time>2012-07-27T09:29:25Z</time>
      </trkpt>
      <trkpt lat="47.3001" lon="4.9622">
        <ele>418.027</ele>
        <time>2012-07-27T09:29:36Z</time>
      </trkpt>
      <trkpt lat="47.30003" lon="4.96238">
        <ele>417.459</ele>
        <time>2012-07-27T09:29:47Z</time>
      </trkpt>
      <trkpt lat="47.29995" lon="4.96255">
        <ele>416.728</ele>
        <time>2012-07-27T09:29:58Z</time>
      </trkpt>
      <trkpt lat="47.29988" lon="4.96273">
        <ele>416.394</ele>
        <time>2012-07-27T09:30:09Z</time>
      </trkpt>
      <trkpt lat="47.29982" lon="4.96297">
        <ele>414.188</ele>
        <time>2012-07-27T09:30:20Z</time>
      </trkpt>
      <trkpt lat="47.29982" lon="4.96322">
        <ele>412.08</ele>
        <time>2012-07-27T09:30:31Z</time>
      </trkpt>
      <trkpt lat="47.2998" lon="4.96345">
        <ele>408.651</ele>
        <time>2012-07-27T09:30:42Z</time>
      </trkpt>
      <trkpt lat="47.2998" lon="4.96367">
        <ele>406.79</ele>
        <time>2012-07-27T09:30:53Z</time>
      </trkpt>
      <trkpt lat="47.29978" lon="4.9639">
        <ele>404.285</ele>
        <time>2012-07-27T09:31:04Z</time>
      </trkpt>
      <trkpt lat="47.29978" lon="4.9641">
        <ele>399.684</ele>
        <time>2012-07-27T09:31:15Z</time>
      </trkpt>
      <trkpt lat="47.29978" lon="4.96428">
        <ele>397.235</ele>
        <time>2012-07-27T09:31:26Z</time>
      </trkpt>
      <trkpt lat="47.29978" lon="4.9645">
        <ele>398.409</ele>
        <time>2012-07-27T09:31:37Z</time>
      </trkpt>
      <trkpt lat="47.29982" lon="4.9647">
        <ele>394.014</ele>
        <time>2012-07-27T09:31:48Z</time>
      </trkpt>
      <trkpt lat="47.29982" lon="4.96492">
        <ele>392.649</ele>
        <time>2012-07-27T09:31:59Z</time>
      </trkpt>
      <trkpt lat="47.29982" lon="4.9651">
        <ele>389.654</ele>
        <time>2012-07-27T09:32:10Z</time>
      </trkpt>
      <trkpt lat="47.29985" lon="4.9653">
        <ele>389.408</ele>
        <time>2012-07-27T09:32:21Z</time>
      </trkpt>
      <trkpt lat="47.2998" lon="4.96553">
        <ele>386.353</ele>
        <time>2012-07-27T09:32:32Z</time>
      </trkpt>
      <trkpt lat="47.29978" lon="4.9658">
        <ele>385.853</ele>
        <time>2012-07-27T09:32:43Z</time>
      </trkpt>
      <trkpt lat="47.2997" lon="4.96607">
        <ele>385.21</ele>
        <time>2012-07-27T09:32:54Z</time>
      </trkpt>
      <trkpt lat="47.2997" lon="4.9663">
        <ele>385.32</ele>
        <time>2012-07-27T09:33:05Z</time>
      </trkpt>
      <trkpt lat="47.29967" lon="4.9665">
        <ele>388.429</ele>
        <time>2012-07-27T09:33:16Z</time>
      </trkpt>
      <trkpt lat="47.29957" lon="4.96673">
        <ele>389.385</ele>
        <time>2012-07-27T09:33:27Z</time>
      </trkpt>
      <trkpt lat="47.29943" lon="4.96692">
        <ele>391.339</ele>
        <time>2012-07-27T09:33:38Z</time>
      </trkpt>
      <trkpt lat="47.29937" lon="4.9671">
        <ele>391.397</ele>
        <time>2012-07-27T09:33:49Z</time>
      </trkpt>
      <trkpt lat="47.29928" lon="4.96728">
        <ele>391.508</ele>
        <time>2012-07-27T09:34:00Z</time>
      </trkpt>
      <trkpt lat="47.2992" lon="4.96748">
        <ele>391.164</ele>
        <time>2012-07-27T09:34:11Z</time>
      </trkpt>
      <trkpt lat="47.2991" lon="4.96768">
        <ele>390.001</ele>
        <time>2012-07-27T09:34:22Z</time>
      </trkpt>
      <trkpt lat="47.299" lon="4.96787">
        <ele>384.801</ele>
        <time>2012-07-27T09:34:33Z</time>
      </trkpt>
      <trkpt lat="47.2989" lon="4.96807">
        <ele>381.211</ele>
        <time>2012-07-27T09:34:44Z</time>
      </trkpt>
      <trkpt lat="47.29882" lon="4.96827">
        <ele>380.941</ele>
        <time>2012-07-27T09:34:55Z</time>
      </trkpt>
      <trkpt lat="47.29875" lon="4.9685">
        <ele>383.394</ele>
        <time>2012-07-27T09:35:06Z</time>
      </trkpt>
      <trkpt lat="47.29868" lon="4.96868">
        <ele>383.407</ele>
        <time>2012-07-27T09:35:17Z</time>
      </trkpt>
      <trkpt lat="47.29863" lon="4.96888">
        <ele>383.295</ele>
        <time>2012-07-27T09:35:28Z</time>
      </trkpt>
      <trkpt lat="47.29857" lon="4.9691">
        <ele>383.657</ele>
        <time>2012-07-27T09:35:39Z</time>
      </trkpt>
      <trkpt lat="47.29852" lon="4.96932">
        <ele>382.815</ele>
        <time>2012-07-27T09:35:50Z</time>
      </trkpt>
      <trkpt lat="47.29847" lon="4.96957">
        <ele>383.271</ele>
        <time>2012-07-27T09:36:01Z</time>
      </trkpt>
      <trkpt lat="47.29845" lon="4.9698">
        <ele>382.74</ele>
        <time>2012-07-27T09:36:12Z</time>
      </trkpt>
      <trkpt lat="47.29845" lon="4.97">
        <ele>386.067</ele>
        <time>2012-07-27T09:36:23Z</time>
      </trkpt>
      <trkpt lat="47.2984" lon="4.97022">
        <ele>385.442</ele>
        <time>2012-07-27T09:36:34Z</time>
      </trkpt>
      <trkpt lat="47.2984" lon="4.97045">
        <ele>384.644</ele>
        <time>2012-07-27T09:36:45Z</time>
      </trkpt>
      <trkpt lat="47.29838" lon="4.97068">
        <ele>381.225</ele>
        <time>2012-07-27T09:36:56Z</time>
      </trkpt>
      <trkpt lat="47.29842" lon="4.97092">
        <ele>382.662</ele>
        <time>2012-07-27T09:37:07Z</time>
      </trkpt>
      <trkpt lat="47.29842" lon="4.97113">
        <ele>380.929</ele>
        <time>2012-07-27T09:37:18Z</time>
      </trkpt>
      <trkpt lat="47.29845" lon="4.97135">
        <ele>380.296</ele>
        <time>2012-07-27T09:37:29Z</time>
      </trkpt>
      <trkpt lat="47.29848" lon="4.97155">
        <ele>381.057</ele>
        <time>2012-07-27T09:37:40Z</time>
      </trkpt>
      <trkpt lat="47.2985" lon="4.97175">
        <ele>384.39</ele>
        <time>2012-07-27T09:37:51Z</time>
      </trkpt>
      <trkpt lat="47.2985" lon="4.97197">
        <ele>384.788</ele>
        <time>2012-07-27T09:38:02Z</time>
      </trkpt>
      <trkpt lat="47.29852" lon="4.9722">
        <ele>384.013</ele>
        <time>2012-07-27T09:38:13Z</time>
      </trkpt>
      <trkpt lat="47.29853" lon="4.97243">
        <ele>383.541</ele>
        <time>2012-07-27T09:38:24Z</time>
      </trkpt>
      <trkpt lat="47.29855" lon="4.97265">
        <ele>381.205</ele>
        <time>2012-07-27T09:38:35Z</time>
      </trkpt>
      <trkpt lat="47.29852" lon="4.97278">
        <ele>382.752</ele>
        <time>2012-07-27T09:38:46Z</time>
      </trkpt>
      <trkpt lat="47.29852" lon="4.9728">
        <ele>382.958</ele>
        <time>2012-07-27T09:38:57Z</time>
      </trkpt>
      <trkpt lat="47.2985" lon="4.9729">
        <ele>383.658</ele>
        <time>2012-07-27T09:39:08Z</time>
      </trkpt>
      <trkpt lat="47.29847" lon="4.97308">
        <ele>385.296</ele>
        <time>2012-07-27T09:39:19Z</time>
      </trkpt>
      <trkpt lat="47.29842" lon="4.97328">
        <ele>381.703</ele>
        <time>2012-07-27T09:39:30Z</time>
      </trkpt>
      <trkpt lat="47.29837" lon="4.97352">
        <ele>379.292</ele>
        <time>2012-07-27T09:39:41Z</time>
      </trkpt>
      <trkpt lat="47.29833" lon="4.97372">
        <ele>379.323</ele>
        <time>2012-07-27T09:39:52Z</time>
      </trkpt>
      <trkpt lat="47.29828" lon="4.97397">
        <ele>380.3</ele>
        <time>2012-07-27T09:40:03Z</time>
      </trkpt>
      <trkpt lat="47.29823" lon="4.97422">
        <ele>381.66</ele>
        <time>2012-07-27T09:40:14Z</time>
      </trkpt>
      <trkpt lat="47.2982" lon="4.97438">
        <ele>381.28</ele>
        <time>2012-07-27T09:40:25Z</time>
      </trkpt>
      <trkpt lat="47.29815" lon="4.97458">
        <ele>379.379</ele>
        <time>2012-07-27T09:40:36Z</time>
      </trkpt>
      <trkpt lat="47.29815" lon="4.97487">
        <ele>379.269</ele>
        <time>2012-07-27T09:40:47Z</time>
      </trkpt>
      <trkpt lat="47.29812" lon="4.97508">
        <ele>378.578</ele>
        <time>2012-07-27T09:40:58Z</time>
      </trkpt>
      <trkpt lat="47.29807" lon="4.97532">
        <ele>378.618</ele>
        <time>2012-07-27T09:41:09Z</time>
      </trkpt>
      <trkpt lat="47.29802" lon="4.97553">
        <ele>376.775</ele>
        <time>2012-07-27T09:41:20Z</time>
      </trkpt>
      <trkpt lat="47.29798" lon="4.97577">
        <ele>378.247</ele>
        <time>2012-07-27T09:41:31Z</time>
      </trkpt>
      <trkpt lat="47.29793" lon="4.97595">
        <ele>377.202</ele>
        <time>2012-07-27T09:41:42Z</time>
      </trkpt>
      <trkpt lat="47.29788" lon="4.97615">
        <ele>375.884</ele>
        <time>2012-07-27T09:41:53Z</time>
      </trkpt>
      <trkpt lat="47.2978" lon="4.97637">
        <ele>376.313</ele>
        <time>2012-07-27T09:42:04Z</time>
      </trkpt>
      <trkpt lat="47.29777" lon="4.97657">
        <ele>376.595</ele>
        <time>2012-07-27T09:42:15Z</time>
      </trkpt>
      <trkpt lat="47.29768" lon="4.97678">
        <ele>376.97</ele>
        <time>2012-07-27T09:42:26Z</time>
      </trkpt>
      <trkpt lat="47.29762" lon="4.97703">
        <ele>376.4</ele>
        <time>2012-07-27T09:42:37Z</time>
      </trkpt>
      <trkpt lat="47.29757" lon="4.97723">
        <ele>376.679</ele>
        <time>2012-07-27T09:42:48Z</time>
      </trkpt>
      <trkpt lat="47.29755" lon="4.97747">
        <ele>376.913</ele>
        <time>2012-07-27T09:42:59Z</time>
      </trkpt>
      <trkpt lat="47.29752" lon="4.9777">
        <ele>375.043</ele>
        <time>2012-07-27T09:43:10Z</time>
      </trkpt>
      <trkpt lat="47.29747" lon="4.97793">
        <ele>375.899</ele>
        <time>2012-07-27T09:43:21Z</time>
      </trkpt>
      <trkpt lat="47.29743" lon="4.97818">
        <ele>375.62</ele>
        <time>2012-07-27T09:43:32Z</time>
      </trkpt>
      <trkpt lat="47.29738" lon="4.97837">
        <ele>375.71</ele>
        <time>2012-07-27T09:43:43Z</time>
      </trkpt>
      <trkpt lat="47.29735" lon="4.97862">
        <ele>377.444</ele>
        <time>2012-07-27T09:43:54Z</time>
      </trkpt>
      <trkpt lat="47.2973" lon="4.97885">
        <ele>378.992</ele>
        <time>2012-07-27T09:44:05Z</time>
      </trkpt>
      <trkpt lat="47.29725" lon="4.97907">
        <ele>377.027</ele>
        <time>2012-07-27T09:44:16Z</time>
      </trkpt>
      <trkpt lat="47.2972" lon="4.97928">
        <ele>375.823</ele>
        <time>2012-07-27T09:44:27Z</time>
      </trkpt>
      <trkpt lat="47.29717" lon="4.97952">
        <ele>374.008</ele>
        <time>2012-07-27T09:44:38Z</time>
      </trkpt>
      <trkpt lat="47.29707" lon="4.97995">
        <ele>375.949</ele>
        <time>2012-07-27T09:45:00Z</time>
      </trkpt>
      <trkpt lat="47.29703" lon="4.98017">
        <ele>375.848</ele>
        <time>2012-07-27T09:45:11Z</time>
      </trkpt>
      <trkpt lat="47.29698" lon="4.98035">
        <ele>373.207</ele>
        <time>2012-07-27T09:45:22Z</time>
      </trkpt>
      <trkpt lat="47.29693" lon="4.9806">
        <ele>376.416</ele>
        <time>2012-07-27T09:45:33Z</time>
      </trkpt>
      <trkpt lat="47.2969" lon="4.98085">
        <ele>375.8</ele>
        <time>2012-07-27T09:45:44Z</time>
      </trkpt>
      <trkpt lat="47.29685" lon="4.98107">
        <ele>376.628</ele>
        <time>2012-07-27T09:45:55Z</time>
      </trkpt>
      <trkpt lat="47.29682" lon="4.9813">
        <ele>377.26</ele>
        <time>2012-07-27T09:46:06Z</time>
      </trkpt>
      <trkpt lat="47.29675" lon="4.98155">
        <ele>378.912</ele>
        <time>2012-07-27T09:46:17Z</time>
      </trkpt>
      <trkpt lat="47.29672" lon="4.98178">
        <ele>378.779</ele>
        <time>2012-07-27T09:46:28Z</time>
      </trkpt>
      <trkpt lat="47.2967" lon="4.982">
        <ele>379.058</ele>
        <time>2012-07-27T09:46:39Z</time>
      </trkpt>
      <trkpt lat="47.29665" lon="4.98222">
        <ele>379.416</ele>
        <time>2012-07-27T09:46:50Z</time>
      </trkpt>
      <trkpt lat="47.2966" lon="4.98243">
        <ele>379.812</ele>
        <time>2012-07-27T09:47:01Z</time>
      </trkpt>
      <trkpt lat="47.29655" lon="4.98267">
        <ele>379.696</ele>
        <time>2012-07-27T09:47:12Z</time>
      </trkpt>
      <trkpt lat="47.29652" lon="4.98287">
        <ele>378.554</ele>
        <time>2012-07-27T09:47:23Z</time>
      </trkpt>
      <trkpt lat="47.29648" lon="4.98308">
        <ele>375.498</ele>
        <time>2012-07-27T09:47:34Z</time>
      </trkpt>
      <trkpt lat="47.29642" lon="4.98335">
        <ele>377.261</ele>
        <time>2012-07-27T09:47:45Z</time>
      </trkpt>
      <trkpt lat="47.29638" lon="4.98358">
        <ele>376.023</ele>
        <time>2012-07-27T09:47:56Z</time>
      </trkpt>
      <trkpt lat="47.29633" lon="4.9838">
        <ele>376.493</ele>
        <time>2012-07-27T09:48:07Z</time>
      </trkpt>
      <trkpt lat="47.29628" lon="4.98403">
        <ele>375.907</ele>
        <time>2012-07-27T09:48:18Z</time>
      </trkpt>
      <trkpt lat="47.29625" lon="4.98427">
        <ele>376.239</ele>
        <time>2012-07-27T09:48:29Z</time>
      </trkpt>
      <trkpt lat="47.2962" lon="4.98438">
        <ele>376.136</ele>
        <time>2012-07-27T09:48:40Z</time>
      </trkpt>
      <trkpt lat="47.29615" lon="4.98443">
        <ele>374.428</ele>
        <time>2012-07-27T09:48:51Z</time>
      </trkpt>
      <trkpt lat="47.29613" lon="4.98445">
        <ele>374.943</ele>
        <time>2012-07-27T09:49:02Z</time>
      </trkpt>
      <trkpt lat="47.2961" lon="4.9845">
        <ele>376.315</ele>
        <time>2012-07-27T09:49:13Z</time>
      </trkpt>
      <trkpt lat="47.29608" lon="4.98452">
        <ele>375.455</ele>
        <time>2012-07-27T09:49:24Z</time>
      </trkpt>
      <trkpt lat="47.29602" lon="4.9846">
        <ele>377.063</ele>
        <time>2012-07-27T09:49:35Z</time>
      </trkpt>
      <trkpt lat="47.29588" lon="4.98473">
        <ele>377.828</ele>
        <time>2012-07-27T09:49:46Z</time>
      </trkpt>
      <trkpt lat="47.29578" lon="4.98482">
        <ele>378.454</ele>
        <time>2012-07-27T09:49:57Z</time>
      </trkpt>
      <trkpt lat="47.29572" lon="4.9849">
        <ele>379.195</ele>
        <time>2012-07-27T09:50:08Z</time>
      </trkpt>
      <trkpt lat="47.29553" lon="4.985">
        <ele>379.679</ele>
        <time>2012-07-27T09:50:19Z</time>
      </trkpt>
      <trkpt lat="47.29542" lon="4.98508">
        <ele>380.561</ele>
        <time>2012-07-27T09:50:30Z</time>
      </trkpt>
      <trkpt lat="47.29525" lon="4.98517">
        <ele>381.738</ele>
        <time>2012-07-27T09:50:41Z</time>
      </trkpt>
      <trkpt lat="47.2951" lon="4.98522">
        <ele>379.307</ele>
        <time>2012-07-27T09:50:52Z</time>
      </trkpt>
      <trkpt lat="47.29493" lon="4.9853">
        <ele>377.888</ele>
        <time>2012-07-27T09:51:03Z</time>
      </trkpt>
      <trkpt lat="47.29487" lon="4.98543">
        <ele>377.955</ele>
        <time>2012-07-27T09:51:14Z</time>
      </trkpt>
      <trkpt lat="47.29472" lon="4.98548">
        <ele>376.789</ele>
        <time>2012-07-27T09:51:25Z</time>
      </trkpt>
      <trkpt lat="47.29457" lon="4.98555">
        <ele>377.73</ele>
        <time>2012-07-27T09:51:36Z</time>
      </trkpt>
      <trkpt lat="47.29443" lon="4.98562">
        <ele>377.191</ele>
        <time>2012-07-27T09:51:47Z</time>
      </trkpt>
      <trkpt lat="47.29432" lon="4.98568">
        <ele>376.855</ele>
        <time>2012-07-27T09:51:58Z</time>
      </trkpt>
      <trkpt lat="47.2942" lon="4.98575">
        <ele>377.392</ele>
        <time>2012-07-27T09:52:09Z</time>
      </trkpt>
      <trkpt lat="47.29402" lon="4.98587">
        <ele>376.165</ele>
        <time>2012-07-27T09:52:20Z</time>
      </trkpt>
      <trkpt lat="47.2939" lon="4.98592">
        <ele>375.712</ele>
        <time>2012-07-27T09:52:31Z</time>
      </trkpt>
      <trkpt lat="47.29372" lon="4.986">
        <ele>375.816</ele>
        <time>2012-07-27T09:52:42Z</time>
      </trkpt>
      <trkpt lat="47.29353" lon="4.98605">
        <ele>374.573</ele>
        <time>2012-07-27T09:52:53Z</time>
      </trkpt>
      <trkpt lat="47.29338" lon="4.98612">
        <ele>372.156</ele>
        <time>2012-07-27T09:53:04Z</time>
      </trkpt>
      <trkpt lat="47.2932" lon="4.98622">
        <ele>373.041</ele>
        <time>2012-07-27T09:53:15Z</time>
      </trkpt>
      <trkpt lat="47.29307" lon="4.98627">
        <ele>372.585</ele>
        <time>2012-07-27T09:53:26Z</time>
      </trkpt>
      <trkpt lat="47.2929" lon="4.98637">
        <ele>370.556</ele>
        <time>2012-07-27T09:53:37Z</time>
      </trkpt>
      <trkpt lat="47.29278" lon="4.98647">
        <ele>368.427</ele>
        <time>2012-07-27T09:53:48Z</time>
      </trkpt>
      <trkpt lat="47.29263" lon="4.98658">
        <ele>365.138</ele>
        <time>2012-07-27T09:53:59Z</time>
      </trkpt>
      <trkpt lat="47.2925" lon="4.98668">
        <ele>364.201</ele>
        <time>2012-07-27T09:54:10Z</time>
      </trkpt>
      <trkpt lat="47.29237" lon="4.9868">
        <ele>362.69</ele>
        <time>2012-07-27T09:54:21Z</time>
      </trkpt>
      <trkpt lat="47.29228" lon="4.98697">
        <ele>360.464</ele>
        <time>2012-07-27T09:54:32Z</time>
      </trkpt>
      <trkpt lat="47.2922" lon="4.98715">
        <ele>357.092</ele>
        <time>2012-07-27T09:54:43Z</time>
      </trkpt>
      <trkpt lat="47.29213" lon="4.98735">
        <ele>355.724</ele>
        <time>2012-07-27T09:54:54Z</time>
      </trkpt>
      <trkpt lat="47.2921" lon="4.98755">
        <ele>355.98</ele>
        <time>2012-07-27T09:55:05Z</time>
      </trkpt>
      <trkpt lat="47.29207" lon="4.98777">
        <ele>354.793</ele>
        <time>2012-07-27T09:55:16Z</time>
      </trkpt>
      <trkpt lat="47.29207" lon="4.988">
        <ele>351.22</ele>
        <time>2012-07-27T09:55:27Z</time>
      </trkpt>
      <trkpt lat="47.29203" lon="4.98823">
        <ele>352.408</ele>
        <time>2012-07-27T09:55:38Z</time>
      </trkpt>
      <trkpt lat="47.29197" lon="4.98843">
        <ele>350.254</ele>
        <time>2012-07-27T09:55:49Z</time>
      </trkpt>
      <trkpt lat="47.2919" lon="4.98863">
        <ele>348.42</ele>
        <time>2012-07-27T09:56:00Z</time>
      </trkpt>
      <trkpt lat="47.29187" lon="4.98885">
        <ele>349.005</ele>
        <time>2012-07-27T09:56:11Z</time>
      </trkpt>
      <trkpt lat="47.29183" lon="4.98907">
        <ele>347.506</ele>
        <time>2012-07-27T09:56:22Z</time>
      </trkpt>
      <trkpt lat="47.29182" lon="4.98923">
        <ele>346.662</ele>
        <time>2012-07-27T09:56:33Z</time>
      </trkpt>
      <trkpt lat="47.29173" lon="4.98942">
        <ele>345.726</ele>
        <time>2012-07-27T09:56:44Z</time>
      </trkpt>
      <trkpt lat="47.29172" lon="4.98955">
        <ele>344.359</ele>
        <time>2012-07-27T09:56:55Z</time>
      </trkpt>
      <trkpt lat="47.29168" lon="4.9897">
        <ele>341.589</ele>
        <time>2012-07-27T09:57:06Z</time>
      </trkpt>
      <trkpt lat="47.29167" lon="4.98987">
        <ele>342.917</ele>
        <time>2012-07-27T09:57:17Z</time>
      </trkpt>
      <trkpt lat="47.2916" lon="4.99005">
        <ele>343.553</ele>
        <time>2012-07-27T09:57:28Z</time>
      </trkpt>
      <trkpt lat="47.29158" lon="4.99028">
        <ele>343.289</ele>
        <time>2012-07-27T09:57:39Z</time>
      </trkpt>
      <trkpt lat="47.29155" lon="4.99052">
        <ele>342.647</ele>
        <time>2012-07-27T09:57:50Z</time>
      </trkpt>
      <trkpt lat="47.2915" lon="4.99073">
        <ele>343.218</ele>
        <time>2012-07-27T09:58:01Z</time>
      </trkpt>
      <trkpt lat="47.29142" lon="4.9909">
        <ele>340.087</ele>
        <time>2012-07-27T09:58:12Z</time>
      </trkpt>
      <trkpt lat="47.29137" lon="4.99112">
        <ele>338.026</ele>
        <time>2012-07-27T09:58:23Z</time>
      </trkpt>
      <trkpt lat="47.29127" lon="4.9913">
        <ele>339.902</ele>
        <time>2012-07-27T09:58:34Z</time>
      </trkpt>
      <trkpt lat="47.29122" lon="4.99152">
        <ele>337.276</ele>
        <time>2012-07-27T09:58:45Z</time>
      </trkpt>
      <trkpt lat="47.29117" lon="4.99177">
        <ele>333.184</ele>
        <time>2012-07-27T09:58:56Z</time>
      </trkpt>
      <trkpt lat="47.29112" lon="4.99195">
        <ele>330.241</ele>
        <time>2012-07-27T09:59:07Z</time>
      </trkpt>
      <trkpt lat="47.29107" lon="4.99217">
        <ele>330.901</ele>
        <time>2012-07-27T09:59:18Z</time>
      </trkpt>
      <trkpt lat="47.29103" lon="4.9924">
        <ele>331.182</ele>
        <time>2012-07-27T09:59:29Z</time>
      </trkpt>
      <trkpt lat="47.29098" lon="4.9926">
        <ele>331.281</ele>
        <time>2012-07-27T09:59:40Z</time>
      </trkpt>
      <trkpt lat="47.29095" lon="4.9928">
        <ele>329.63</ele>
        <time>2012-07-27T09:59:51Z</time>
      </trkpt>
      <trkpt lat="47.29088" lon="4.99303">
        <ele>326.463</ele>
        <time>2012-07-27T10:00:02Z</time>
      </trkpt>
      <trkpt lat="47.29085" lon="4.99325">
        <ele>321.762</ele>
        <time>2012-07-27T10:00:13Z</time>
      </trkpt>
      <trkpt lat="47.2908" lon="4.99348">
        <ele>320.187</ele>
        <time>2012-07-27T10:00:24Z</time>
      </trkpt>
      <trkpt lat="47.29077" lon="4.9937">
        <ele>318.374</ele>
        <time>2012-07-27T10:00:35Z</time>
      </trkpt>
      <trkpt lat="47.29075" lon="4.9939">
        <ele>319.244</ele>
        <time>2012-07-27T10:00:46Z</time>
      </trkpt>
      <trkpt lat="47.2907" lon="4.99412">
        <ele>317.229</ele>
        <time>2012-07-27T10:00:57Z</time>
      </trkpt>
      <trkpt lat="47.29068" lon="4.99437">
        <ele>315.515</ele>
        <time>2012-07-27T10:01:08Z</time>
      </trkpt>
      <trkpt lat="47.2907" lon="4.99462">
        <ele>313.894</ele>
        <time>2012-07-27T10:01:19Z</time>
      </trkpt>
      <trkpt lat="47.29075" lon="4.99483">
        <ele>312.932</ele>
        <time>2012-07-27T10:01:30Z</time>
      </trkpt>
      <trkpt lat="47.29082" lon="4.99502">
        <ele>310.369</ele>
        <time>2012-07-27T10:01:41Z</time>
      </trkpt>
      <trkpt lat="47.29088" lon="4.99522">
        <ele>308.933</ele>
        <time>2012-07-27T10:01:52Z</time>
      </trkpt>
      <trkpt lat="47.29097" lon="4.99538">
        <ele>307.164</ele>
        <time>2012-07-27T10:02:03Z</time>
      </trkpt>
      <trkpt lat="47.2911" lon="4.99553">
        <ele>305.094</ele>
        <time>2012-07-27T10:02:14Z</time>
      </trkpt>
      <trkpt lat="47.29117" lon="4.99568">
        <ele>304.309</ele>
        <time>2012-07-27T10:02:25Z</time>
      </trkpt>
      <trkpt lat="47.29128" lon="4.99585">
        <ele>303.033</ele>
        <time>2012-07-27T10:02:36Z</time>
      </trkpt>
      <trkpt lat="47.29143" lon="4.99598">
        <ele>304.902</ele>
        <time>2012-07-27T10:02:47Z</time>
      </trkpt>
      <trkpt lat="47.29155" lon="4.99605">
        <ele>302.415</ele>
        <time>2012-07-27T10:02:58Z</time>
      </trkpt>
      <trkpt lat="47.29163" lon="4.9962">
        <ele>302.56</ele>
        <time>2012-07-27T10:03:09Z</time>
      </trkpt>
      <trkpt lat="47.29175" lon="4.99642">
        <ele>303.021</ele>
        <time>2012-07-27T10:03:20Z</time>
      </trkpt>
      <trkpt lat="47.29185" lon="4.99658">
        <ele>301.816</ele>
        <time>2012-07-27T10:03:31Z</time>
      </trkpt>
      <trkpt lat="47.29197" lon="4.99675">
        <ele>302.727</ele>
        <time>2012-07-27T10:03:42Z</time>
      </trkpt>
      <trkpt lat="47.2921" lon="4.99683">
        <ele>301.29</ele>
        <time>2012-07-27T10:03:53Z</time>
      </trkpt>
      <trkpt lat="47.29227" lon="4.99685">
        <ele>299.984</ele>
        <time>2012-07-27T10:04:04Z</time>
      </trkpt>
      <trkpt lat="47.29237" lon="4.99692">
        <ele>297.592</ele>
        <time>2012-07-27T10:04:15Z</time>
      </trkpt>
      <trkpt lat="47.29248" lon="4.99697">
        <ele>298.325</ele>
        <time>2012-07-27T10:04:26Z</time>
      </trkpt>
      <trkpt lat="47.2926" lon="4.99705">
        <ele>298.146</ele>
        <time>2012-07-27T10:04:37Z</time>
      </trkpt>
      <trkpt lat="47.29262" lon="4.99725">
        <ele>299.877</ele>
        <time>2012-07-27T10:04:48Z</time>
      </trkpt>
      <trkpt lat="47.29265" lon="4.99745">
        <ele>298.128</ele>
        <time>2012-07-27T10:04:59Z</time>
      </trkpt>
      <trkpt lat="47.29265" lon="4.99768">
        <ele>294.318</ele>
        <time>2012-07-27T10:05:10Z</time>
      </trkpt>
      <trkpt lat="47.29265" lon="4.99787">
        <ele>293.691</ele>
        <time>2012-07-27T10:05:21Z</time>
      </trkpt>
      <trkpt lat="47.29263" lon="4.99807">
        <ele>292.006</ele>
        <time>2012-07-27T10:05:32Z</time>
      </trkpt>
      <trkpt lat="47.29257" lon="4.99823">
        <ele>291.495</ele>
        <time>2012-07-27T10:05:43Z</time>
      </trkpt>
      <trkpt lat="47.29257" lon="4.9984">
        <ele>290.023</ele>
        <time>2012-07-27T10:05:54Z</time>
      </trkpt>
      <trkpt lat="47.29255" lon="4.99855">
        <ele>289.381</ele>
        <time>2012-07-27T10:06:05Z</time>
      </trkpt>
      <trkpt lat="47.2925" lon="4.99875">
        <ele>291.16</ele>
        <time>2012-07-27T10:06:16Z</time>
      </trkpt>
      <trkpt lat="47.29248" lon="4.99893">
        <ele>290.788</ele>
        <time>2012-07-27T10:06:27Z</time>
      </trkpt>
      <trkpt lat="47.29245" lon="4.99917">
        <ele>290.226</ele>
        <time>2012-07-27T10:06:38Z</time>
      </trkpt>
      <trkpt lat="47.29248" lon="4.99935">
        <ele>289.223</ele>
        <time>2012-07-27T10:06:49Z</time>
      </trkpt>
      <trkpt lat="47.29242" lon="4.9996">
        <ele>289.006</ele>
        <time>2012-07-27T10:07:00Z</time>
      </trkpt>
      <trkpt lat="47.2924" lon="4.9998">
        <ele>287.85</ele>
        <time>2012-07-27T10:07:11Z</time>
      </trkpt>
      <trkpt lat="47.29237" lon="5.00005">
        <ele>289.876</ele>
        <time>2012-07-27T10:07:22Z</time>
      </trkpt>
      <trkpt lat="47.29223" lon="5.00027">
        <ele>288.287</ele>
        <time>2012-07-27T10:07:33Z</time>
      </trkpt>
      <trkpt lat="47.29225" lon="5.0003">
        <ele>287.422</ele>
        <time>2012-07-27T10:07:44Z</time>
      </trkpt>
      <trkpt lat="47.29223" lon="5.00038">
        <ele>287.939</ele>
        <time>2012-07-27T10:07:55Z</time>
      </trkpt>
      <trkpt lat="47.29215" lon="5.00058">
        <ele>284.805</ele>
        <time>2012-07-27T10:08:06Z</time>
      </trkpt>
      <trkpt lat="47.29208" lon="5.00078">
        <ele>280.858</ele>
        <time>2012-07-27T10:08:17Z</time>
      </trkpt>
      <trkpt lat="47.29208" lon="5.00102">
        <ele>276.961</ele>
        <time>2012-07-27T10:08:28Z</time>
      </trkpt>
      <trkpt lat="47.29203" lon="5.00123">
        <ele>271.712</ele>
        <time>2012-07-27T10:08:39Z</time>
      </trkpt>
      <trkpt lat="47.29197" lon="5.00145">
        <ele>270.068</ele>
        <time>2012-07-27T10:08:50Z</time>
      </trkpt>
      <trkpt lat="47.29193" lon="5.00163">
        <ele>268.089</ele>
        <time>2012-07-27T10:09:01Z</time>
      </trkpt>
      <trkpt lat="47.29188" lon="5.00185">
        <ele>268.416</ele>
        <time>2012-07-27T10:09:12Z</time>
      </trkpt>
      <trkpt lat="47.29195" lon="5.00195">
        <ele>267.724</ele>
        <time>2012-07-27T10:09:23Z</time>
      </trkpt>
      <trkpt lat="47.29208" lon="5.002">
        <ele>265.603</ele>
        <time>2012-07-27T10:09:34Z</time>
      </trkpt>
      <trkpt lat="47.29213" lon="5.0021">
        <ele>262.024</ele>
        <time>2012-07-27T10:09:45Z</time>
      </trkpt>
      <trkpt lat="47.29215" lon="5.00228">
        <ele>260.971</ele>
        <time>2012-07-27T10:09:56Z</time>
      </trkpt>
      <trkpt lat="47.2921" lon="5.00255">
        <ele>261.786</ele>
        <time>2012-07-27T10:10:07Z</time>
      </trkpt>
      <trkpt lat="47.29202" lon="5.00275">
        <ele>262.875</ele>
        <time>2012-07-27T10:10:18Z</time>
      </trkpt>
      <trkpt lat="47.29198" lon="5.00297">
        <ele>263.445</ele>
        <time>2012-07-27T10:10:29Z</time>
      </trkpt>
      <trkpt lat="47.29193" lon="5.00313">
        <ele>262.891</ele>
        <time>2012-07-27T10:10:40Z</time>
      </trkpt>
      <trkpt lat="47.2919" lon="5.00335">
        <ele>264.01</ele>
        <time>2012-07-27T10:10:51Z</time>
      </trkpt>
      <trkpt lat="47.29197" lon="5.00353">
        <ele>265.8</ele>
        <time>2012-07-27T10:11:02Z</time>
      </trkpt>
      <trkpt lat="47.29207" lon="5.00358">
        <ele>266.078</ele>
        <time>2012-07-27T10:11:13Z</time>
      </trkpt>
      <trkpt lat="47.29217" lon="5.00377">
        <ele>266.305</ele>
        <time>2012-07-27T10:11:24Z</time>
      </trkpt>
      <trkpt lat="47.29215" lon="5.00397">
        <ele>268.894</ele>
        <time>2012-07-27T10:11:35Z</time>
      </trkpt>
      <trkpt lat="47.29207" lon="5.00417">
        <ele>271.556</ele>
        <time>2012-07-27T10:11:46Z</time>
      </trkpt>
      <trkpt lat="47.29215" lon="5.00425">
        <ele>272.858</ele>
        <time>2012-07-27T10:11:57Z</time>
      </trkpt>
      <trkpt lat="47.29225" lon="5.00437">
        <ele>272.81</ele>
        <time>2012-07-27T10:12:08Z</time>
      </trkpt>
      <trkpt lat="47.2923" lon="5.00453">
        <ele>273.076</ele>
        <time>2012-07-27T10:12:19Z</time>
      </trkpt>
      <trkpt lat="47.29227" lon="5.00478">
        <ele>272.556</ele>
        <time>2012-07-27T10:12:30Z</time>
      </trkpt>
      <trkpt lat="47.29227" lon="5.00488">
        <ele>271.811</ele>
        <time>2012-07-27T10:12:41Z</time>
      </trkpt>
      <trkpt lat="47.29228" lon="5.00508">
        <ele>269.769</ele>
        <time>2012-07-27T10:12:52Z</time>
      </trkpt>
      <trkpt lat="47.29232" lon="5.00535">
        <ele>269.731</ele>
        <time>2012-07-27T10:13:03Z</time>
      </trkpt>
      <trkpt lat="47.29233" lon="5.00553">
        <ele>269.046</ele>
        <time>2012-07-27T10:13:14Z</time>
      </trkpt>
    </trkseg>
  </trk>
</gpx>